<?xml version="1.0" encoding="UTF-8" standalone="no" ?>
<gpx xmlns="http://www.topografix.com/GPX/1/1" xmlns:xsi="http://www.w3.org/2001/XMLSchema-instance" xsi:schemaLocation="http://www.topografix.com/GPX/1/1 http://www.topografix.com/GPX/1/1/gpx.xsd" version="1.1" creator="VisuGPX - https://www.visugpx.com">
  <metadata>
    <name>RSPFY-bois de Rochefort</name>
    <desc><![CDATA[marche nordique dans le bois de Rochefort partant du carrefour de Luynes et passant par le point de vue sur la vallée (161m), le carrefour des Jumelles, le Fonds de Bullion et le carrefour Elisabeth. ]]></desc>
  </metadata>
  <trk>
    <name><![CDATA[2024-03-05 09:00]]></name>
    <desc><![CDATA[<p>Heure de départ: 09:00 5 mars 2024<br/>Heure d'arrivée: 11:38 5 mars 2024<br/>Distance: 11,8 km (02:37)<br/>Temps déplacement: 02:13<br/>Vitesse moyenne: 4,48 km/h<br/>Vitesse moyenne mouv.: 5,29 km/h<br/>Vitesse Max.: 7,64 km/h<br/>Altitude minimale: 105 m<br/>Altitude maximale: 163 m<br/>Vitesse de montée: 353 m/h<br/>Vitesse de descente: -351,6 m/h<br/>Gain d'altitude: 458 m<br/>Perte d'altitude: -452 m<br/>Temps de montée: 01:17<br/>Temps de descente: 01:17<br/></p><hr align="center" width="480" style="height: 2px; width: 517px"/>]]></desc>
    <trkseg>
      <trkpt lat="48.59189" lon="1.96615">
        <ele>116.9</ele>
        <time>2024-03-05T08:00:55Z</time>
      </trkpt>
      <trkpt lat="48.59189" lon="1.966">
        <ele>116.8</ele>
        <time>2024-03-05T08:01:25Z</time>
      </trkpt>
      <trkpt lat="48.59179" lon="1.96603">
        <ele>116.5</ele>
        <time>2024-03-05T08:02:37Z</time>
      </trkpt>
      <trkpt lat="48.5917" lon="1.96601">
        <ele>116.1</ele>
        <time>2024-03-05T08:02:48Z</time>
      </trkpt>
      <trkpt lat="48.59162" lon="1.96594">
        <ele>115.7</ele>
        <time>2024-03-05T08:02:56Z</time>
      </trkpt>
      <trkpt lat="48.59154" lon="1.96602">
        <ele>115.4</ele>
        <time>2024-03-05T08:03:08Z</time>
      </trkpt>
      <trkpt lat="48.59156" lon="1.96616">
        <ele>115.6</ele>
        <time>2024-03-05T08:03:16Z</time>
      </trkpt>
      <trkpt lat="48.59156" lon="1.9663">
        <ele>115.4</ele>
        <time>2024-03-05T08:03:26Z</time>
      </trkpt>
      <trkpt lat="48.59156" lon="1.96645">
        <ele>115.2</ele>
        <time>2024-03-05T08:03:35Z</time>
      </trkpt>
      <trkpt lat="48.59155" lon="1.9666">
        <ele>115.1</ele>
        <time>2024-03-05T08:03:42Z</time>
      </trkpt>
      <trkpt lat="48.59153" lon="1.96674">
        <ele>115</ele>
        <time>2024-03-05T08:03:49Z</time>
      </trkpt>
      <trkpt lat="48.59154" lon="1.9669">
        <ele>115.1</ele>
        <time>2024-03-05T08:03:57Z</time>
      </trkpt>
      <trkpt lat="48.59152" lon="1.96703">
        <ele>114.9</ele>
        <time>2024-03-05T08:04:04Z</time>
      </trkpt>
      <trkpt lat="48.59147" lon="1.96716">
        <ele>114.6</ele>
        <time>2024-03-05T08:04:12Z</time>
      </trkpt>
      <trkpt lat="48.59145" lon="1.96731">
        <ele>114.5</ele>
        <time>2024-03-05T08:04:18Z</time>
      </trkpt>
      <trkpt lat="48.59144" lon="1.96745">
        <ele>114.5</ele>
        <time>2024-03-05T08:04:24Z</time>
      </trkpt>
      <trkpt lat="48.59138" lon="1.96757">
        <ele>114.2</ele>
        <time>2024-03-05T08:04:32Z</time>
      </trkpt>
      <trkpt lat="48.59136" lon="1.96771">
        <ele>114.6</ele>
        <time>2024-03-05T08:04:39Z</time>
      </trkpt>
      <trkpt lat="48.59135" lon="1.96786">
        <ele>114.7</ele>
        <time>2024-03-05T08:04:46Z</time>
      </trkpt>
      <trkpt lat="48.59131" lon="1.96799">
        <ele>114.4</ele>
        <time>2024-03-05T08:04:52Z</time>
      </trkpt>
      <trkpt lat="48.59126" lon="1.96812">
        <ele>114.1</ele>
        <time>2024-03-05T08:05:00Z</time>
      </trkpt>
      <trkpt lat="48.59122" lon="1.96825">
        <ele>113.8</ele>
        <time>2024-03-05T08:05:07Z</time>
      </trkpt>
      <trkpt lat="48.59117" lon="1.96838">
        <ele>113.4</ele>
        <time>2024-03-05T08:05:15Z</time>
      </trkpt>
      <trkpt lat="48.59113" lon="1.96853">
        <ele>113.2</ele>
        <time>2024-03-05T08:05:22Z</time>
      </trkpt>
      <trkpt lat="48.59109" lon="1.96866">
        <ele>113</ele>
        <time>2024-03-05T08:05:29Z</time>
      </trkpt>
      <trkpt lat="48.59107" lon="1.96881">
        <ele>113</ele>
        <time>2024-03-05T08:05:38Z</time>
      </trkpt>
      <trkpt lat="48.59102" lon="1.96895">
        <ele>113.2</ele>
        <time>2024-03-05T08:05:45Z</time>
      </trkpt>
      <trkpt lat="48.59098" lon="1.96908">
        <ele>113.4</ele>
        <time>2024-03-05T08:05:52Z</time>
      </trkpt>
      <trkpt lat="48.59092" lon="1.9692">
        <ele>113.3</ele>
        <time>2024-03-05T08:06:01Z</time>
      </trkpt>
      <trkpt lat="48.59089" lon="1.96935">
        <ele>113.2</ele>
        <time>2024-03-05T08:06:08Z</time>
      </trkpt>
      <trkpt lat="48.59086" lon="1.96949">
        <ele>113.1</ele>
        <time>2024-03-05T08:06:16Z</time>
      </trkpt>
      <trkpt lat="48.59082" lon="1.96962">
        <ele>113</ele>
        <time>2024-03-05T08:06:24Z</time>
      </trkpt>
      <trkpt lat="48.59079" lon="1.96975">
        <ele>113</ele>
        <time>2024-03-05T08:06:31Z</time>
      </trkpt>
      <trkpt lat="48.59076" lon="1.96989">
        <ele>113</ele>
        <time>2024-03-05T08:06:38Z</time>
      </trkpt>
      <trkpt lat="48.59075" lon="1.97003">
        <ele>113.1</ele>
        <time>2024-03-05T08:06:45Z</time>
      </trkpt>
      <trkpt lat="48.59072" lon="1.97016">
        <ele>113.3</ele>
        <time>2024-03-05T08:06:51Z</time>
      </trkpt>
      <trkpt lat="48.59069" lon="1.97031">
        <ele>113.5</ele>
        <time>2024-03-05T08:06:59Z</time>
      </trkpt>
      <trkpt lat="48.59064" lon="1.97044">
        <ele>113.3</ele>
        <time>2024-03-05T08:07:05Z</time>
      </trkpt>
      <trkpt lat="48.59061" lon="1.97058">
        <ele>113.2</ele>
        <time>2024-03-05T08:07:13Z</time>
      </trkpt>
      <trkpt lat="48.59058" lon="1.97073">
        <ele>113.1</ele>
        <time>2024-03-05T08:07:19Z</time>
      </trkpt>
      <trkpt lat="48.59057" lon="1.97088">
        <ele>113</ele>
        <time>2024-03-05T08:07:25Z</time>
      </trkpt>
      <trkpt lat="48.59055" lon="1.97102">
        <ele>113</ele>
        <time>2024-03-05T08:07:32Z</time>
      </trkpt>
      <trkpt lat="48.59051" lon="1.97116">
        <ele>113</ele>
        <time>2024-03-05T08:07:39Z</time>
      </trkpt>
      <trkpt lat="48.59047" lon="1.97129">
        <ele>113</ele>
        <time>2024-03-05T08:07:47Z</time>
      </trkpt>
      <trkpt lat="48.59046" lon="1.97143">
        <ele>113</ele>
        <time>2024-03-05T08:07:53Z</time>
      </trkpt>
      <trkpt lat="48.59045" lon="1.97156">
        <ele>113</ele>
        <time>2024-03-05T08:07:59Z</time>
      </trkpt>
      <trkpt lat="48.59041" lon="1.97169">
        <ele>113</ele>
        <time>2024-03-05T08:08:06Z</time>
      </trkpt>
      <trkpt lat="48.59038" lon="1.97184">
        <ele>113</ele>
        <time>2024-03-05T08:08:13Z</time>
      </trkpt>
      <trkpt lat="48.59037" lon="1.97198">
        <ele>112.9</ele>
        <time>2024-03-05T08:08:20Z</time>
      </trkpt>
      <trkpt lat="48.59033" lon="1.97213">
        <ele>112.5</ele>
        <time>2024-03-05T08:08:28Z</time>
      </trkpt>
      <trkpt lat="48.59032" lon="1.97227">
        <ele>112.2</ele>
        <time>2024-03-05T08:08:35Z</time>
      </trkpt>
      <trkpt lat="48.59029" lon="1.97241">
        <ele>112.1</ele>
        <time>2024-03-05T08:08:42Z</time>
      </trkpt>
      <trkpt lat="48.5903" lon="1.97254">
        <ele>112.1</ele>
        <time>2024-03-05T08:08:51Z</time>
      </trkpt>
      <trkpt lat="48.59037" lon="1.97264">
        <ele>112.3</ele>
        <time>2024-03-05T08:09:02Z</time>
      </trkpt>
      <trkpt lat="48.59045" lon="1.97271">
        <ele>112.6</ele>
        <time>2024-03-05T08:09:10Z</time>
      </trkpt>
      <trkpt lat="48.59053" lon="1.97279">
        <ele>112.9</ele>
        <time>2024-03-05T08:09:19Z</time>
      </trkpt>
      <trkpt lat="48.59061" lon="1.97287">
        <ele>113.1</ele>
        <time>2024-03-05T08:09:26Z</time>
      </trkpt>
      <trkpt lat="48.5907" lon="1.97294">
        <ele>113.3</ele>
        <time>2024-03-05T08:09:33Z</time>
      </trkpt>
      <trkpt lat="48.59078" lon="1.973">
        <ele>113.6</ele>
        <time>2024-03-05T08:09:42Z</time>
      </trkpt>
      <trkpt lat="48.59087" lon="1.97307">
        <ele>114</ele>
        <time>2024-03-05T08:09:49Z</time>
      </trkpt>
      <trkpt lat="48.59096" lon="1.97311">
        <ele>114</ele>
        <time>2024-03-05T08:09:55Z</time>
      </trkpt>
      <trkpt lat="48.59104" lon="1.9732">
        <ele>114</ele>
        <time>2024-03-05T08:10:01Z</time>
      </trkpt>
      <trkpt lat="48.59113" lon="1.97326">
        <ele>114.1</ele>
        <time>2024-03-05T08:10:07Z</time>
      </trkpt>
      <trkpt lat="48.5912" lon="1.97335">
        <ele>114.3</ele>
        <time>2024-03-05T08:10:15Z</time>
      </trkpt>
      <trkpt lat="48.59127" lon="1.97345">
        <ele>114.6</ele>
        <time>2024-03-05T08:10:23Z</time>
      </trkpt>
      <trkpt lat="48.59136" lon="1.97351">
        <ele>114.9</ele>
        <time>2024-03-05T08:10:30Z</time>
      </trkpt>
      <trkpt lat="48.59145" lon="1.97359">
        <ele>115.2</ele>
        <time>2024-03-05T08:10:38Z</time>
      </trkpt>
      <trkpt lat="48.59154" lon="1.97366">
        <ele>115.7</ele>
        <time>2024-03-05T08:10:45Z</time>
      </trkpt>
      <trkpt lat="48.59161" lon="1.97374">
        <ele>116.3</ele>
        <time>2024-03-05T08:10:53Z</time>
      </trkpt>
      <trkpt lat="48.5917" lon="1.9738">
        <ele>116.9</ele>
        <time>2024-03-05T08:11:00Z</time>
      </trkpt>
      <trkpt lat="48.59179" lon="1.97387">
        <ele>117.4</ele>
        <time>2024-03-05T08:11:08Z</time>
      </trkpt>
      <trkpt lat="48.59188" lon="1.97393">
        <ele>117.9</ele>
        <time>2024-03-05T08:11:15Z</time>
      </trkpt>
      <trkpt lat="48.59197" lon="1.97401">
        <ele>118.6</ele>
        <time>2024-03-05T08:11:22Z</time>
      </trkpt>
      <trkpt lat="48.59204" lon="1.97408">
        <ele>119.4</ele>
        <time>2024-03-05T08:11:30Z</time>
      </trkpt>
      <trkpt lat="48.59214" lon="1.97413">
        <ele>120.2</ele>
        <time>2024-03-05T08:11:36Z</time>
      </trkpt>
      <trkpt lat="48.59222" lon="1.97418">
        <ele>121</ele>
        <time>2024-03-05T08:11:43Z</time>
      </trkpt>
      <trkpt lat="48.59231" lon="1.9742">
        <ele>121.5</ele>
        <time>2024-03-05T08:11:50Z</time>
      </trkpt>
      <trkpt lat="48.59241" lon="1.97421">
        <ele>121.9</ele>
        <time>2024-03-05T08:11:57Z</time>
      </trkpt>
      <trkpt lat="48.59251" lon="1.97421">
        <ele>122.3</ele>
        <time>2024-03-05T08:12:03Z</time>
      </trkpt>
      <trkpt lat="48.5926" lon="1.9742">
        <ele>123.2</ele>
        <time>2024-03-05T08:12:11Z</time>
      </trkpt>
      <trkpt lat="48.5927" lon="1.97419">
        <ele>124.3</ele>
        <time>2024-03-05T08:12:19Z</time>
      </trkpt>
      <trkpt lat="48.5928" lon="1.97415">
        <ele>125.1</ele>
        <time>2024-03-05T08:12:26Z</time>
      </trkpt>
      <trkpt lat="48.5929" lon="1.97415">
        <ele>125.8</ele>
        <time>2024-03-05T08:12:33Z</time>
      </trkpt>
      <trkpt lat="48.59299" lon="1.97414">
        <ele>126.5</ele>
        <time>2024-03-05T08:12:40Z</time>
      </trkpt>
      <trkpt lat="48.59309" lon="1.97413">
        <ele>127.1</ele>
        <time>2024-03-05T08:12:47Z</time>
      </trkpt>
      <trkpt lat="48.59319" lon="1.97416">
        <ele>127.9</ele>
        <time>2024-03-05T08:12:56Z</time>
      </trkpt>
      <trkpt lat="48.59328" lon="1.97415">
        <ele>128.6</ele>
        <time>2024-03-05T08:13:06Z</time>
      </trkpt>
      <trkpt lat="48.59338" lon="1.97416">
        <ele>129.2</ele>
        <time>2024-03-05T08:13:14Z</time>
      </trkpt>
      <trkpt lat="48.59348" lon="1.97417">
        <ele>129.5</ele>
        <time>2024-03-05T08:13:20Z</time>
      </trkpt>
      <trkpt lat="48.59358" lon="1.97418">
        <ele>130</ele>
        <time>2024-03-05T08:13:28Z</time>
      </trkpt>
      <trkpt lat="48.59367" lon="1.9742">
        <ele>130.7</ele>
        <time>2024-03-05T08:13:37Z</time>
      </trkpt>
      <trkpt lat="48.59376" lon="1.9742">
        <ele>131.4</ele>
        <time>2024-03-05T08:13:45Z</time>
      </trkpt>
      <trkpt lat="48.59386" lon="1.97418">
        <ele>131.9</ele>
        <time>2024-03-05T08:13:54Z</time>
      </trkpt>
      <trkpt lat="48.59395" lon="1.97417">
        <ele>132.5</ele>
        <time>2024-03-05T08:14:05Z</time>
      </trkpt>
      <trkpt lat="48.59404" lon="1.97421">
        <ele>133.3</ele>
        <time>2024-03-05T08:14:13Z</time>
      </trkpt>
      <trkpt lat="48.59414" lon="1.9742">
        <ele>134</ele>
        <time>2024-03-05T08:14:21Z</time>
      </trkpt>
      <trkpt lat="48.59423" lon="1.97422">
        <ele>134.7</ele>
        <time>2024-03-05T08:14:28Z</time>
      </trkpt>
      <trkpt lat="48.59433" lon="1.97421">
        <ele>135.3</ele>
        <time>2024-03-05T08:14:38Z</time>
      </trkpt>
      <trkpt lat="48.59443" lon="1.97424">
        <ele>136.2</ele>
        <time>2024-03-05T08:14:46Z</time>
      </trkpt>
      <trkpt lat="48.59453" lon="1.97425">
        <ele>136.8</ele>
        <time>2024-03-05T08:14:55Z</time>
      </trkpt>
      <trkpt lat="48.59462" lon="1.97427">
        <ele>137.4</ele>
        <time>2024-03-05T08:15:02Z</time>
      </trkpt>
      <trkpt lat="48.5947" lon="1.97432">
        <ele>137.9</ele>
        <time>2024-03-05T08:15:56Z</time>
      </trkpt>
      <trkpt lat="48.59474" lon="1.97445">
        <ele>138</ele>
        <time>2024-03-05T08:16:16Z</time>
      </trkpt>
      <trkpt lat="48.59472" lon="1.9746">
        <ele>139.1</ele>
        <time>2024-03-05T08:16:25Z</time>
      </trkpt>
      <trkpt lat="48.59473" lon="1.97475">
        <ele>140.1</ele>
        <time>2024-03-05T08:16:32Z</time>
      </trkpt>
      <trkpt lat="48.59473" lon="1.9749">
        <ele>140.6</ele>
        <time>2024-03-05T08:16:40Z</time>
      </trkpt>
      <trkpt lat="48.59478" lon="1.97503">
        <ele>140.6</ele>
        <time>2024-03-05T08:16:47Z</time>
      </trkpt>
      <trkpt lat="48.59476" lon="1.97517">
        <ele>140.7</ele>
        <time>2024-03-05T08:16:54Z</time>
      </trkpt>
      <trkpt lat="48.59472" lon="1.97531">
        <ele>141.1</ele>
        <time>2024-03-05T08:17:02Z</time>
      </trkpt>
      <trkpt lat="48.59466" lon="1.97541">
        <ele>141.8</ele>
        <time>2024-03-05T08:17:10Z</time>
      </trkpt>
      <trkpt lat="48.59459" lon="1.97551">
        <ele>142.7</ele>
        <time>2024-03-05T08:17:17Z</time>
      </trkpt>
      <trkpt lat="48.59453" lon="1.97561">
        <ele>143.6</ele>
        <time>2024-03-05T08:17:24Z</time>
      </trkpt>
      <trkpt lat="48.59446" lon="1.97573">
        <ele>144.5</ele>
        <time>2024-03-05T08:17:32Z</time>
      </trkpt>
      <trkpt lat="48.5944" lon="1.97586">
        <ele>145.4</ele>
        <time>2024-03-05T08:17:40Z</time>
      </trkpt>
      <trkpt lat="48.59435" lon="1.97597">
        <ele>146.2</ele>
        <time>2024-03-05T08:17:46Z</time>
      </trkpt>
      <trkpt lat="48.59432" lon="1.9761">
        <ele>146.9</ele>
        <time>2024-03-05T08:17:54Z</time>
      </trkpt>
      <trkpt lat="48.59428" lon="1.97625">
        <ele>147.9</ele>
        <time>2024-03-05T08:18:04Z</time>
      </trkpt>
      <trkpt lat="48.5943" lon="1.97639">
        <ele>148.6</ele>
        <time>2024-03-05T08:18:12Z</time>
      </trkpt>
      <trkpt lat="48.59429" lon="1.97653">
        <ele>149.7</ele>
        <time>2024-03-05T08:18:22Z</time>
      </trkpt>
      <trkpt lat="48.59428" lon="1.97668">
        <ele>150.9</ele>
        <time>2024-03-05T08:18:30Z</time>
      </trkpt>
      <trkpt lat="48.59429" lon="1.97683">
        <ele>152.1</ele>
        <time>2024-03-05T08:18:38Z</time>
      </trkpt>
      <trkpt lat="48.59428" lon="1.97698">
        <ele>153.5</ele>
        <time>2024-03-05T08:18:47Z</time>
      </trkpt>
      <trkpt lat="48.59429" lon="1.97712">
        <ele>154.3</ele>
        <time>2024-03-05T08:18:55Z</time>
      </trkpt>
      <trkpt lat="48.59427" lon="1.97725">
        <ele>155.4</ele>
        <time>2024-03-05T08:19:04Z</time>
      </trkpt>
      <trkpt lat="48.59427" lon="1.97739">
        <ele>156.1</ele>
        <time>2024-03-05T08:19:15Z</time>
      </trkpt>
      <trkpt lat="48.59417" lon="1.97739">
        <ele>156.6</ele>
        <time>2024-03-05T08:19:25Z</time>
      </trkpt>
      <trkpt lat="48.59408" lon="1.97733">
        <ele>156.7</ele>
        <time>2024-03-05T08:19:33Z</time>
      </trkpt>
      <trkpt lat="48.59399" lon="1.97727">
        <ele>156.8</ele>
        <time>2024-03-05T08:19:42Z</time>
      </trkpt>
      <trkpt lat="48.5939" lon="1.97721">
        <ele>156.9</ele>
        <time>2024-03-05T08:19:49Z</time>
      </trkpt>
      <trkpt lat="48.59381" lon="1.97716">
        <ele>156.8</ele>
        <time>2024-03-05T08:19:56Z</time>
      </trkpt>
      <trkpt lat="48.59372" lon="1.97712">
        <ele>156.6</ele>
        <time>2024-03-05T08:20:04Z</time>
      </trkpt>
      <trkpt lat="48.59362" lon="1.97712">
        <ele>156.6</ele>
        <time>2024-03-05T08:20:12Z</time>
      </trkpt>
      <trkpt lat="48.59355" lon="1.97721">
        <ele>156.7</ele>
        <time>2024-03-05T08:20:23Z</time>
      </trkpt>
      <trkpt lat="48.59348" lon="1.97731">
        <ele>156.5</ele>
        <time>2024-03-05T08:20:32Z</time>
      </trkpt>
      <trkpt lat="48.59342" lon="1.97743">
        <ele>156.3</ele>
        <time>2024-03-05T08:20:40Z</time>
      </trkpt>
      <trkpt lat="48.59339" lon="1.97757">
        <ele>156.2</ele>
        <time>2024-03-05T08:20:48Z</time>
      </trkpt>
      <trkpt lat="48.59339" lon="1.97772">
        <ele>156.2</ele>
        <time>2024-03-05T08:20:57Z</time>
      </trkpt>
      <trkpt lat="48.59339" lon="1.97787">
        <ele>156.2</ele>
        <time>2024-03-05T08:21:05Z</time>
      </trkpt>
      <trkpt lat="48.59343" lon="1.978">
        <ele>156.4</ele>
        <time>2024-03-05T08:21:14Z</time>
      </trkpt>
      <trkpt lat="48.59346" lon="1.97815">
        <ele>156.3</ele>
        <time>2024-03-05T08:21:23Z</time>
      </trkpt>
      <trkpt lat="48.59349" lon="1.97829">
        <ele>156.2</ele>
        <time>2024-03-05T08:21:32Z</time>
      </trkpt>
      <trkpt lat="48.59352" lon="1.97842">
        <ele>156.1</ele>
        <time>2024-03-05T08:21:40Z</time>
      </trkpt>
      <trkpt lat="48.59354" lon="1.97856">
        <ele>156.1</ele>
        <time>2024-03-05T08:21:48Z</time>
      </trkpt>
      <trkpt lat="48.59355" lon="1.97869">
        <ele>156</ele>
        <time>2024-03-05T08:21:56Z</time>
      </trkpt>
      <trkpt lat="48.59357" lon="1.97884">
        <ele>156.1</ele>
        <time>2024-03-05T08:22:06Z</time>
      </trkpt>
      <trkpt lat="48.59357" lon="1.979">
        <ele>155.8</ele>
        <time>2024-03-05T08:22:14Z</time>
      </trkpt>
      <trkpt lat="48.5936" lon="1.97915">
        <ele>155.8</ele>
        <time>2024-03-05T08:22:21Z</time>
      </trkpt>
      <trkpt lat="48.5936" lon="1.97929">
        <ele>156.3</ele>
        <time>2024-03-05T08:22:28Z</time>
      </trkpt>
      <trkpt lat="48.59361" lon="1.97945">
        <ele>156.9</ele>
        <time>2024-03-05T08:22:35Z</time>
      </trkpt>
      <trkpt lat="48.59359" lon="1.97959">
        <ele>157.2</ele>
        <time>2024-03-05T08:22:43Z</time>
      </trkpt>
      <trkpt lat="48.59358" lon="1.97973">
        <ele>157.6</ele>
        <time>2024-03-05T08:22:49Z</time>
      </trkpt>
      <trkpt lat="48.59355" lon="1.97986">
        <ele>157.2</ele>
        <time>2024-03-05T08:22:55Z</time>
      </trkpt>
      <trkpt lat="48.59355" lon="1.98001">
        <ele>157.3</ele>
        <time>2024-03-05T08:23:01Z</time>
      </trkpt>
      <trkpt lat="48.59356" lon="1.98016">
        <ele>157.5</ele>
        <time>2024-03-05T08:23:07Z</time>
      </trkpt>
      <trkpt lat="48.59359" lon="1.98029">
        <ele>157.7</ele>
        <time>2024-03-05T08:23:13Z</time>
      </trkpt>
      <trkpt lat="48.59364" lon="1.98042">
        <ele>157.1</ele>
        <time>2024-03-05T08:23:20Z</time>
      </trkpt>
      <trkpt lat="48.59371" lon="1.98051">
        <ele>156.7</ele>
        <time>2024-03-05T08:23:26Z</time>
      </trkpt>
      <trkpt lat="48.59378" lon="1.9806">
        <ele>156.3</ele>
        <time>2024-03-05T08:23:33Z</time>
      </trkpt>
      <trkpt lat="48.59387" lon="1.9807">
        <ele>156.3</ele>
        <time>2024-03-05T08:23:40Z</time>
      </trkpt>
      <trkpt lat="48.59394" lon="1.98076">
        <ele>156.3</ele>
        <time>2024-03-05T08:23:47Z</time>
      </trkpt>
      <trkpt lat="48.59404" lon="1.98083">
        <ele>156</ele>
        <time>2024-03-05T08:23:55Z</time>
      </trkpt>
      <trkpt lat="48.59414" lon="1.98084">
        <ele>155.9</ele>
        <time>2024-03-05T08:24:01Z</time>
      </trkpt>
      <trkpt lat="48.59424" lon="1.98083">
        <ele>156.3</ele>
        <time>2024-03-05T08:24:07Z</time>
      </trkpt>
      <trkpt lat="48.59432" lon="1.98075">
        <ele>157</ele>
        <time>2024-03-05T08:24:14Z</time>
      </trkpt>
      <trkpt lat="48.5944" lon="1.98067">
        <ele>157.5</ele>
        <time>2024-03-05T08:24:22Z</time>
      </trkpt>
      <trkpt lat="48.59448" lon="1.98058">
        <ele>157.9</ele>
        <time>2024-03-05T08:24:29Z</time>
      </trkpt>
      <trkpt lat="48.59455" lon="1.9805">
        <ele>158.2</ele>
        <time>2024-03-05T08:24:36Z</time>
      </trkpt>
      <trkpt lat="48.59463" lon="1.98042">
        <ele>158.5</ele>
        <time>2024-03-05T08:24:43Z</time>
      </trkpt>
      <trkpt lat="48.59471" lon="1.98034">
        <ele>158.8</ele>
        <time>2024-03-05T08:24:51Z</time>
      </trkpt>
      <trkpt lat="48.59477" lon="1.98024">
        <ele>158.8</ele>
        <time>2024-03-05T08:24:58Z</time>
      </trkpt>
      <trkpt lat="48.59485" lon="1.98016">
        <ele>158.5</ele>
        <time>2024-03-05T08:25:05Z</time>
      </trkpt>
      <trkpt lat="48.59493" lon="1.98009">
        <ele>158.2</ele>
        <time>2024-03-05T08:25:14Z</time>
      </trkpt>
      <trkpt lat="48.59501" lon="1.98">
        <ele>158</ele>
        <time>2024-03-05T08:25:20Z</time>
      </trkpt>
      <trkpt lat="48.5951" lon="1.97993">
        <ele>158.2</ele>
        <time>2024-03-05T08:25:27Z</time>
      </trkpt>
      <trkpt lat="48.59519" lon="1.97997">
        <ele>158</ele>
        <time>2024-03-05T08:25:35Z</time>
      </trkpt>
      <trkpt lat="48.59527" lon="1.98004">
        <ele>157.9</ele>
        <time>2024-03-05T08:25:42Z</time>
      </trkpt>
      <trkpt lat="48.59535" lon="1.98012">
        <ele>157.4</ele>
        <time>2024-03-05T08:25:50Z</time>
      </trkpt>
      <trkpt lat="48.59544" lon="1.98019">
        <ele>157.1</ele>
        <time>2024-03-05T08:25:57Z</time>
      </trkpt>
      <trkpt lat="48.59554" lon="1.98025">
        <ele>157</ele>
        <time>2024-03-05T08:26:05Z</time>
      </trkpt>
      <trkpt lat="48.59563" lon="1.98029">
        <ele>156.2</ele>
        <time>2024-03-05T08:26:13Z</time>
      </trkpt>
      <trkpt lat="48.59571" lon="1.98033">
        <ele>155.2</ele>
        <time>2024-03-05T08:26:22Z</time>
      </trkpt>
      <trkpt lat="48.59581" lon="1.98037">
        <ele>154.2</ele>
        <time>2024-03-05T08:26:29Z</time>
      </trkpt>
      <trkpt lat="48.59589" lon="1.98045">
        <ele>153.1</ele>
        <time>2024-03-05T08:26:37Z</time>
      </trkpt>
      <trkpt lat="48.59598" lon="1.9805">
        <ele>151.9</ele>
        <time>2024-03-05T08:26:43Z</time>
      </trkpt>
      <trkpt lat="48.59605" lon="1.98059">
        <ele>150.9</ele>
        <time>2024-03-05T08:26:50Z</time>
      </trkpt>
      <trkpt lat="48.59611" lon="1.98071">
        <ele>150.6</ele>
        <time>2024-03-05T08:26:58Z</time>
      </trkpt>
      <trkpt lat="48.59618" lon="1.98081">
        <ele>150.4</ele>
        <time>2024-03-05T08:27:05Z</time>
      </trkpt>
      <trkpt lat="48.59625" lon="1.98091">
        <ele>150.2</ele>
        <time>2024-03-05T08:27:12Z</time>
      </trkpt>
      <trkpt lat="48.59633" lon="1.98099">
        <ele>150</ele>
        <time>2024-03-05T08:27:18Z</time>
      </trkpt>
      <trkpt lat="48.59641" lon="1.98107">
        <ele>149.8</ele>
        <time>2024-03-05T08:27:24Z</time>
      </trkpt>
      <trkpt lat="48.59648" lon="1.98118">
        <ele>150</ele>
        <time>2024-03-05T08:27:31Z</time>
      </trkpt>
      <trkpt lat="48.59657" lon="1.98126">
        <ele>149.9</ele>
        <time>2024-03-05T08:27:37Z</time>
      </trkpt>
      <trkpt lat="48.59665" lon="1.98134">
        <ele>149.9</ele>
        <time>2024-03-05T08:27:43Z</time>
      </trkpt>
      <trkpt lat="48.59672" lon="1.98142">
        <ele>149.8</ele>
        <time>2024-03-05T08:27:49Z</time>
      </trkpt>
      <trkpt lat="48.59679" lon="1.98153">
        <ele>149.3</ele>
        <time>2024-03-05T08:27:56Z</time>
      </trkpt>
      <trkpt lat="48.59685" lon="1.98164">
        <ele>148.7</ele>
        <time>2024-03-05T08:28:03Z</time>
      </trkpt>
      <trkpt lat="48.59693" lon="1.98173">
        <ele>147.9</ele>
        <time>2024-03-05T08:28:10Z</time>
      </trkpt>
      <trkpt lat="48.59702" lon="1.9818">
        <ele>147.1</ele>
        <time>2024-03-05T08:28:17Z</time>
      </trkpt>
      <trkpt lat="48.59711" lon="1.98185">
        <ele>146.4</ele>
        <time>2024-03-05T08:28:24Z</time>
      </trkpt>
      <trkpt lat="48.5972" lon="1.98191">
        <ele>145.3</ele>
        <time>2024-03-05T08:28:31Z</time>
      </trkpt>
      <trkpt lat="48.59729" lon="1.98195">
        <ele>144.5</ele>
        <time>2024-03-05T08:28:37Z</time>
      </trkpt>
      <trkpt lat="48.59739" lon="1.98198">
        <ele>143.7</ele>
        <time>2024-03-05T08:28:59Z</time>
      </trkpt>
      <trkpt lat="48.59748" lon="1.98205">
        <ele>142.8</ele>
        <time>2024-03-05T08:29:10Z</time>
      </trkpt>
      <trkpt lat="48.59757" lon="1.9821">
        <ele>142</ele>
        <time>2024-03-05T08:29:17Z</time>
      </trkpt>
      <trkpt lat="48.59766" lon="1.98213">
        <ele>141.2</ele>
        <time>2024-03-05T08:29:24Z</time>
      </trkpt>
      <trkpt lat="48.59775" lon="1.98216">
        <ele>140.4</ele>
        <time>2024-03-05T08:29:31Z</time>
      </trkpt>
      <trkpt lat="48.59783" lon="1.98223">
        <ele>139.2</ele>
        <time>2024-03-05T08:29:39Z</time>
      </trkpt>
      <trkpt lat="48.59788" lon="1.98237">
        <ele>137.7</ele>
        <time>2024-03-05T08:29:47Z</time>
      </trkpt>
      <trkpt lat="48.59795" lon="1.98246">
        <ele>136.4</ele>
        <time>2024-03-05T08:29:54Z</time>
      </trkpt>
      <trkpt lat="48.59805" lon="1.98249">
        <ele>135.1</ele>
        <time>2024-03-05T08:30:03Z</time>
      </trkpt>
      <trkpt lat="48.59814" lon="1.98248">
        <ele>133.8</ele>
        <time>2024-03-05T08:30:12Z</time>
      </trkpt>
      <trkpt lat="48.59824" lon="1.9825">
        <ele>132.4</ele>
        <time>2024-03-05T08:30:19Z</time>
      </trkpt>
      <trkpt lat="48.59833" lon="1.98255">
        <ele>130.9</ele>
        <time>2024-03-05T08:30:26Z</time>
      </trkpt>
      <trkpt lat="48.59842" lon="1.98261">
        <ele>129.7</ele>
        <time>2024-03-05T08:30:33Z</time>
      </trkpt>
      <trkpt lat="48.59851" lon="1.98266">
        <ele>128.5</ele>
        <time>2024-03-05T08:30:40Z</time>
      </trkpt>
      <trkpt lat="48.59861" lon="1.9827">
        <ele>127.3</ele>
        <time>2024-03-05T08:30:45Z</time>
      </trkpt>
      <trkpt lat="48.59869" lon="1.98273">
        <ele>127.2</ele>
        <time>2024-03-05T08:30:52Z</time>
      </trkpt>
      <trkpt lat="48.59879" lon="1.98278">
        <ele>127</ele>
        <time>2024-03-05T08:31:02Z</time>
      </trkpt>
      <trkpt lat="48.59887" lon="1.98284">
        <ele>126.6</ele>
        <time>2024-03-05T08:31:09Z</time>
      </trkpt>
      <trkpt lat="48.59894" lon="1.98293">
        <ele>126.2</ele>
        <time>2024-03-05T08:31:16Z</time>
      </trkpt>
      <trkpt lat="48.59902" lon="1.98303">
        <ele>125.7</ele>
        <time>2024-03-05T08:31:24Z</time>
      </trkpt>
      <trkpt lat="48.59907" lon="1.98315">
        <ele>125.1</ele>
        <time>2024-03-05T08:31:31Z</time>
      </trkpt>
      <trkpt lat="48.59914" lon="1.98325">
        <ele>124.6</ele>
        <time>2024-03-05T08:31:38Z</time>
      </trkpt>
      <trkpt lat="48.59919" lon="1.98336">
        <ele>123.8</ele>
        <time>2024-03-05T08:31:45Z</time>
      </trkpt>
      <trkpt lat="48.59927" lon="1.98347">
        <ele>122.9</ele>
        <time>2024-03-05T08:31:52Z</time>
      </trkpt>
      <trkpt lat="48.59936" lon="1.98354">
        <ele>122.5</ele>
        <time>2024-03-05T08:31:58Z</time>
      </trkpt>
      <trkpt lat="48.59944" lon="1.98364">
        <ele>121.8</ele>
        <time>2024-03-05T08:32:05Z</time>
      </trkpt>
      <trkpt lat="48.59951" lon="1.98375">
        <ele>121.5</ele>
        <time>2024-03-05T08:32:11Z</time>
      </trkpt>
      <trkpt lat="48.59958" lon="1.98385">
        <ele>121.2</ele>
        <time>2024-03-05T08:32:17Z</time>
      </trkpt>
      <trkpt lat="48.59963" lon="1.98398">
        <ele>120.5</ele>
        <time>2024-03-05T08:32:23Z</time>
      </trkpt>
      <trkpt lat="48.59971" lon="1.98406">
        <ele>120.1</ele>
        <time>2024-03-05T08:32:29Z</time>
      </trkpt>
      <trkpt lat="48.59978" lon="1.98417">
        <ele>119.3</ele>
        <time>2024-03-05T08:32:36Z</time>
      </trkpt>
      <trkpt lat="48.59986" lon="1.98425">
        <ele>119.4</ele>
        <time>2024-03-05T08:32:44Z</time>
      </trkpt>
      <trkpt lat="48.59993" lon="1.98436">
        <ele>119.2</ele>
        <time>2024-03-05T08:32:51Z</time>
      </trkpt>
      <trkpt lat="48.60001" lon="1.98446">
        <ele>118.9</ele>
        <time>2024-03-05T08:32:58Z</time>
      </trkpt>
      <trkpt lat="48.60007" lon="1.98457">
        <ele>118.1</ele>
        <time>2024-03-05T08:33:06Z</time>
      </trkpt>
      <trkpt lat="48.60013" lon="1.9847">
        <ele>117.2</ele>
        <time>2024-03-05T08:33:12Z</time>
      </trkpt>
      <trkpt lat="48.60021" lon="1.98477">
        <ele>117.1</ele>
        <time>2024-03-05T08:33:22Z</time>
      </trkpt>
      <trkpt lat="48.60027" lon="1.98488">
        <ele>116.8</ele>
        <time>2024-03-05T08:33:34Z</time>
      </trkpt>
      <trkpt lat="48.60032" lon="1.98501">
        <ele>115.9</ele>
        <time>2024-03-05T08:33:42Z</time>
      </trkpt>
      <trkpt lat="48.60037" lon="1.98515">
        <ele>114.9</ele>
        <time>2024-03-05T08:33:51Z</time>
      </trkpt>
      <trkpt lat="48.60042" lon="1.98527">
        <ele>114.1</ele>
        <time>2024-03-05T08:34:02Z</time>
      </trkpt>
      <trkpt lat="48.6005" lon="1.98538">
        <ele>113.6</ele>
        <time>2024-03-05T08:34:12Z</time>
      </trkpt>
      <trkpt lat="48.60058" lon="1.98548">
        <ele>113.2</ele>
        <time>2024-03-05T08:34:19Z</time>
      </trkpt>
      <trkpt lat="48.60063" lon="1.98559">
        <ele>112.6</ele>
        <time>2024-03-05T08:34:25Z</time>
      </trkpt>
      <trkpt lat="48.60073" lon="1.98566">
        <ele>112.2</ele>
        <time>2024-03-05T08:34:33Z</time>
      </trkpt>
      <trkpt lat="48.6008" lon="1.98576">
        <ele>112</ele>
        <time>2024-03-05T08:34:40Z</time>
      </trkpt>
      <trkpt lat="48.60088" lon="1.98584">
        <ele>111.8</ele>
        <time>2024-03-05T08:34:47Z</time>
      </trkpt>
      <trkpt lat="48.60098" lon="1.98588">
        <ele>111.3</ele>
        <time>2024-03-05T08:34:53Z</time>
      </trkpt>
      <trkpt lat="48.60107" lon="1.98588">
        <ele>111</ele>
        <time>2024-03-05T08:35:01Z</time>
      </trkpt>
      <trkpt lat="48.60117" lon="1.9859">
        <ele>110.4</ele>
        <time>2024-03-05T08:35:08Z</time>
      </trkpt>
      <trkpt lat="48.60126" lon="1.98598">
        <ele>109.7</ele>
        <time>2024-03-05T08:35:14Z</time>
      </trkpt>
      <trkpt lat="48.60126" lon="1.98613">
        <ele>109.5</ele>
        <time>2024-03-05T08:35:22Z</time>
      </trkpt>
      <trkpt lat="48.60132" lon="1.98625">
        <ele>109.2</ele>
        <time>2024-03-05T08:35:30Z</time>
      </trkpt>
      <trkpt lat="48.6014" lon="1.98632">
        <ele>109</ele>
        <time>2024-03-05T08:35:37Z</time>
      </trkpt>
      <trkpt lat="48.60148" lon="1.98639">
        <ele>108.7</ele>
        <time>2024-03-05T08:35:43Z</time>
      </trkpt>
      <trkpt lat="48.60153" lon="1.98651">
        <ele>108.5</ele>
        <time>2024-03-05T08:35:50Z</time>
      </trkpt>
      <trkpt lat="48.60162" lon="1.98647">
        <ele>108.2</ele>
        <time>2024-03-05T08:36:04Z</time>
      </trkpt>
      <trkpt lat="48.60171" lon="1.98642">
        <ele>107.8</ele>
        <time>2024-03-05T08:36:11Z</time>
      </trkpt>
      <trkpt lat="48.60179" lon="1.98635">
        <ele>107.6</ele>
        <time>2024-03-05T08:36:17Z</time>
      </trkpt>
      <trkpt lat="48.60186" lon="1.98627">
        <ele>107.3</ele>
        <time>2024-03-05T08:36:23Z</time>
      </trkpt>
      <trkpt lat="48.60195" lon="1.9862">
        <ele>107</ele>
        <time>2024-03-05T08:36:30Z</time>
      </trkpt>
      <trkpt lat="48.60204" lon="1.98616">
        <ele>106.3</ele>
        <time>2024-03-05T08:36:37Z</time>
      </trkpt>
      <trkpt lat="48.6021" lon="1.98605">
        <ele>105.7</ele>
        <time>2024-03-05T08:36:44Z</time>
      </trkpt>
      <trkpt lat="48.60217" lon="1.98595">
        <ele>105.3</ele>
        <time>2024-03-05T08:36:51Z</time>
      </trkpt>
      <trkpt lat="48.60226" lon="1.98588">
        <ele>104.9</ele>
        <time>2024-03-05T08:36:59Z</time>
      </trkpt>
      <trkpt lat="48.60234" lon="1.98579">
        <ele>104.6</ele>
        <time>2024-03-05T08:37:06Z</time>
      </trkpt>
      <trkpt lat="48.60241" lon="1.98569">
        <ele>104.3</ele>
        <time>2024-03-05T08:37:11Z</time>
      </trkpt>
      <trkpt lat="48.60249" lon="1.98562">
        <ele>104</ele>
        <time>2024-03-05T08:37:18Z</time>
      </trkpt>
      <trkpt lat="48.60257" lon="1.98554">
        <ele>104</ele>
        <time>2024-03-05T08:37:25Z</time>
      </trkpt>
      <trkpt lat="48.60265" lon="1.98547">
        <ele>104.1</ele>
        <time>2024-03-05T08:37:33Z</time>
      </trkpt>
      <trkpt lat="48.60273" lon="1.98539">
        <ele>104.1</ele>
        <time>2024-03-05T08:37:40Z</time>
      </trkpt>
      <trkpt lat="48.60279" lon="1.98529">
        <ele>104</ele>
        <time>2024-03-05T08:37:47Z</time>
      </trkpt>
      <trkpt lat="48.60285" lon="1.98518">
        <ele>104.3</ele>
        <time>2024-03-05T08:37:53Z</time>
      </trkpt>
      <trkpt lat="48.60291" lon="1.98508">
        <ele>104.7</ele>
        <time>2024-03-05T08:38:01Z</time>
      </trkpt>
      <trkpt lat="48.60298" lon="1.98497">
        <ele>105.1</ele>
        <time>2024-03-05T08:38:09Z</time>
      </trkpt>
      <trkpt lat="48.60303" lon="1.98485">
        <ele>105.5</ele>
        <time>2024-03-05T08:38:16Z</time>
      </trkpt>
      <trkpt lat="48.6031" lon="1.98476">
        <ele>105.7</ele>
        <time>2024-03-05T08:38:22Z</time>
      </trkpt>
      <trkpt lat="48.60317" lon="1.98465">
        <ele>105.8</ele>
        <time>2024-03-05T08:38:28Z</time>
      </trkpt>
      <trkpt lat="48.60324" lon="1.98455">
        <ele>106</ele>
        <time>2024-03-05T08:38:34Z</time>
      </trkpt>
      <trkpt lat="48.60333" lon="1.98447">
        <ele>106</ele>
        <time>2024-03-05T08:38:42Z</time>
      </trkpt>
      <trkpt lat="48.60341" lon="1.9844">
        <ele>105.5</ele>
        <time>2024-03-05T08:38:50Z</time>
      </trkpt>
      <trkpt lat="48.60348" lon="1.98429">
        <ele>105</ele>
        <time>2024-03-05T08:38:58Z</time>
      </trkpt>
      <trkpt lat="48.60356" lon="1.98422">
        <ele>104.4</ele>
        <time>2024-03-05T08:39:05Z</time>
      </trkpt>
      <trkpt lat="48.60365" lon="1.98416">
        <ele>103.7</ele>
        <time>2024-03-05T08:39:12Z</time>
      </trkpt>
      <trkpt lat="48.60373" lon="1.98409">
        <ele>103.1</ele>
        <time>2024-03-05T08:39:18Z</time>
      </trkpt>
      <trkpt lat="48.60382" lon="1.98402">
        <ele>102.5</ele>
        <time>2024-03-05T08:39:25Z</time>
      </trkpt>
      <trkpt lat="48.60392" lon="1.98398">
        <ele>101.9</ele>
        <time>2024-03-05T08:39:32Z</time>
      </trkpt>
      <trkpt lat="48.60402" lon="1.98398">
        <ele>101.4</ele>
        <time>2024-03-05T08:39:39Z</time>
      </trkpt>
      <trkpt lat="48.60412" lon="1.98393">
        <ele>101</ele>
        <time>2024-03-05T08:39:45Z</time>
      </trkpt>
      <trkpt lat="48.6042" lon="1.98386">
        <ele>100.9</ele>
        <time>2024-03-05T08:39:51Z</time>
      </trkpt>
      <trkpt lat="48.60429" lon="1.98379">
        <ele>100.6</ele>
        <time>2024-03-05T08:39:58Z</time>
      </trkpt>
      <trkpt lat="48.60438" lon="1.98374">
        <ele>100.2</ele>
        <time>2024-03-05T08:40:04Z</time>
      </trkpt>
      <trkpt lat="48.60447" lon="1.98371">
        <ele>100</ele>
        <time>2024-03-05T08:40:11Z</time>
      </trkpt>
      <trkpt lat="48.60456" lon="1.98369">
        <ele>100</ele>
        <time>2024-03-05T08:40:18Z</time>
      </trkpt>
      <trkpt lat="48.60465" lon="1.98364">
        <ele>100</ele>
        <time>2024-03-05T08:40:25Z</time>
      </trkpt>
      <trkpt lat="48.60474" lon="1.98362">
        <ele>100.1</ele>
        <time>2024-03-05T08:40:32Z</time>
      </trkpt>
      <trkpt lat="48.60483" lon="1.98362">
        <ele>100.4</ele>
        <time>2024-03-05T08:40:39Z</time>
      </trkpt>
      <trkpt lat="48.60493" lon="1.98361">
        <ele>100.7</ele>
        <time>2024-03-05T08:40:47Z</time>
      </trkpt>
      <trkpt lat="48.60502" lon="1.9836">
        <ele>101.1</ele>
        <time>2024-03-05T08:40:54Z</time>
      </trkpt>
      <trkpt lat="48.60511" lon="1.98359">
        <ele>101.4</ele>
        <time>2024-03-05T08:41:01Z</time>
      </trkpt>
      <trkpt lat="48.60521" lon="1.98359">
        <ele>101.7</ele>
        <time>2024-03-05T08:41:09Z</time>
      </trkpt>
      <trkpt lat="48.60531" lon="1.9836">
        <ele>102</ele>
        <time>2024-03-05T08:41:17Z</time>
      </trkpt>
      <trkpt lat="48.60541" lon="1.98358">
        <ele>102.1</ele>
        <time>2024-03-05T08:41:24Z</time>
      </trkpt>
      <trkpt lat="48.60549" lon="1.98353">
        <ele>102.2</ele>
        <time>2024-03-05T08:41:31Z</time>
      </trkpt>
      <trkpt lat="48.60559" lon="1.98349">
        <ele>102.5</ele>
        <time>2024-03-05T08:41:40Z</time>
      </trkpt>
      <trkpt lat="48.60568" lon="1.98346">
        <ele>102.8</ele>
        <time>2024-03-05T08:41:48Z</time>
      </trkpt>
      <trkpt lat="48.60576" lon="1.9834">
        <ele>102.9</ele>
        <time>2024-03-05T08:41:55Z</time>
      </trkpt>
      <trkpt lat="48.60585" lon="1.98336">
        <ele>102.9</ele>
        <time>2024-03-05T08:42:02Z</time>
      </trkpt>
      <trkpt lat="48.60595" lon="1.98335">
        <ele>102.6</ele>
        <time>2024-03-05T08:42:09Z</time>
      </trkpt>
      <trkpt lat="48.60604" lon="1.98332">
        <ele>102.3</ele>
        <time>2024-03-05T08:42:16Z</time>
      </trkpt>
      <trkpt lat="48.60613" lon="1.98329">
        <ele>102.1</ele>
        <time>2024-03-05T08:42:24Z</time>
      </trkpt>
      <trkpt lat="48.60622" lon="1.98326">
        <ele>102.2</ele>
        <time>2024-03-05T08:42:32Z</time>
      </trkpt>
      <trkpt lat="48.60632" lon="1.98321">
        <ele>102.1</ele>
        <time>2024-03-05T08:42:39Z</time>
      </trkpt>
      <trkpt lat="48.60642" lon="1.98319">
        <ele>102</ele>
        <time>2024-03-05T08:42:46Z</time>
      </trkpt>
      <trkpt lat="48.6065" lon="1.98314">
        <ele>101.9</ele>
        <time>2024-03-05T08:42:52Z</time>
      </trkpt>
      <trkpt lat="48.60659" lon="1.98311">
        <ele>101.9</ele>
        <time>2024-03-05T08:42:59Z</time>
      </trkpt>
      <trkpt lat="48.60669" lon="1.98305">
        <ele>102</ele>
        <time>2024-03-05T08:43:07Z</time>
      </trkpt>
      <trkpt lat="48.60678" lon="1.98304">
        <ele>102.1</ele>
        <time>2024-03-05T08:43:13Z</time>
      </trkpt>
      <trkpt lat="48.60688" lon="1.983">
        <ele>102.2</ele>
        <time>2024-03-05T08:43:20Z</time>
      </trkpt>
      <trkpt lat="48.60698" lon="1.98296">
        <ele>102.2</ele>
        <time>2024-03-05T08:43:27Z</time>
      </trkpt>
      <trkpt lat="48.60704" lon="1.98285">
        <ele>102.4</ele>
        <time>2024-03-05T08:47:09Z</time>
      </trkpt>
      <trkpt lat="48.60713" lon="1.9828">
        <ele>102.3</ele>
        <time>2024-03-05T08:47:18Z</time>
      </trkpt>
      <trkpt lat="48.60723" lon="1.98278">
        <ele>101.9</ele>
        <time>2024-03-05T08:47:27Z</time>
      </trkpt>
      <trkpt lat="48.6073" lon="1.98269">
        <ele>102</ele>
        <time>2024-03-05T08:47:33Z</time>
      </trkpt>
      <trkpt lat="48.60736" lon="1.98258">
        <ele>102.2</ele>
        <time>2024-03-05T08:47:40Z</time>
      </trkpt>
      <trkpt lat="48.60741" lon="1.98246">
        <ele>102.4</ele>
        <time>2024-03-05T08:47:47Z</time>
      </trkpt>
      <trkpt lat="48.60747" lon="1.98234">
        <ele>102.2</ele>
        <time>2024-03-05T08:47:55Z</time>
      </trkpt>
      <trkpt lat="48.60755" lon="1.98225">
        <ele>101.8</ele>
        <time>2024-03-05T08:48:03Z</time>
      </trkpt>
      <trkpt lat="48.60759" lon="1.98212">
        <ele>101.9</ele>
        <time>2024-03-05T08:48:09Z</time>
      </trkpt>
      <trkpt lat="48.60762" lon="1.98198">
        <ele>102.1</ele>
        <time>2024-03-05T08:48:15Z</time>
      </trkpt>
      <trkpt lat="48.60764" lon="1.98183">
        <ele>102.2</ele>
        <time>2024-03-05T08:48:21Z</time>
      </trkpt>
      <trkpt lat="48.60766" lon="1.98169">
        <ele>102.3</ele>
        <time>2024-03-05T08:48:27Z</time>
      </trkpt>
      <trkpt lat="48.60769" lon="1.98156">
        <ele>102.4</ele>
        <time>2024-03-05T08:48:33Z</time>
      </trkpt>
      <trkpt lat="48.60771" lon="1.98141">
        <ele>102.5</ele>
        <time>2024-03-05T08:48:40Z</time>
      </trkpt>
      <trkpt lat="48.60774" lon="1.98128">
        <ele>102.6</ele>
        <time>2024-03-05T08:48:46Z</time>
      </trkpt>
      <trkpt lat="48.60777" lon="1.98113">
        <ele>103</ele>
        <time>2024-03-05T08:48:52Z</time>
      </trkpt>
      <trkpt lat="48.60779" lon="1.98099">
        <ele>103</ele>
        <time>2024-03-05T08:48:59Z</time>
      </trkpt>
      <trkpt lat="48.60781" lon="1.98084">
        <ele>102.9</ele>
        <time>2024-03-05T08:49:05Z</time>
      </trkpt>
      <trkpt lat="48.60784" lon="1.9807">
        <ele>103.2</ele>
        <time>2024-03-05T08:49:12Z</time>
      </trkpt>
      <trkpt lat="48.60787" lon="1.98057">
        <ele>103.6</ele>
        <time>2024-03-05T08:49:18Z</time>
      </trkpt>
      <trkpt lat="48.60791" lon="1.98043">
        <ele>103.5</ele>
        <time>2024-03-05T08:49:26Z</time>
      </trkpt>
      <trkpt lat="48.60795" lon="1.9803">
        <ele>103.4</ele>
        <time>2024-03-05T08:49:33Z</time>
      </trkpt>
      <trkpt lat="48.60798" lon="1.98016">
        <ele>103.3</ele>
        <time>2024-03-05T08:49:40Z</time>
      </trkpt>
      <trkpt lat="48.60802" lon="1.98002">
        <ele>103.1</ele>
        <time>2024-03-05T08:49:47Z</time>
      </trkpt>
      <trkpt lat="48.60804" lon="1.97988">
        <ele>103</ele>
        <time>2024-03-05T08:49:53Z</time>
      </trkpt>
      <trkpt lat="48.60807" lon="1.97974">
        <ele>103</ele>
        <time>2024-03-05T08:49:59Z</time>
      </trkpt>
      <trkpt lat="48.608" lon="1.97965">
        <ele>103.2</ele>
        <time>2024-03-05T08:50:11Z</time>
      </trkpt>
      <trkpt lat="48.6079" lon="1.97965">
        <ele>103.6</ele>
        <time>2024-03-05T08:50:19Z</time>
      </trkpt>
      <trkpt lat="48.60781" lon="1.97961">
        <ele>103.9</ele>
        <time>2024-03-05T08:50:26Z</time>
      </trkpt>
      <trkpt lat="48.60774" lon="1.97952">
        <ele>104.1</ele>
        <time>2024-03-05T08:50:37Z</time>
      </trkpt>
      <trkpt lat="48.60765" lon="1.97946">
        <ele>104.4</ele>
        <time>2024-03-05T08:50:44Z</time>
      </trkpt>
      <trkpt lat="48.60757" lon="1.97938">
        <ele>104.6</ele>
        <time>2024-03-05T08:50:53Z</time>
      </trkpt>
      <trkpt lat="48.60748" lon="1.97932">
        <ele>104.6</ele>
        <time>2024-03-05T08:51:00Z</time>
      </trkpt>
      <trkpt lat="48.60741" lon="1.97922">
        <ele>104.5</ele>
        <time>2024-03-05T08:51:12Z</time>
      </trkpt>
      <trkpt lat="48.60732" lon="1.97919">
        <ele>104.7</ele>
        <time>2024-03-05T08:51:29Z</time>
      </trkpt>
      <trkpt lat="48.60725" lon="1.9791">
        <ele>104.9</ele>
        <time>2024-03-05T08:51:38Z</time>
      </trkpt>
      <trkpt lat="48.60717" lon="1.97902">
        <ele>105.1</ele>
        <time>2024-03-05T08:51:47Z</time>
      </trkpt>
      <trkpt lat="48.60708" lon="1.97895">
        <ele>105.1</ele>
        <time>2024-03-05T08:51:55Z</time>
      </trkpt>
      <trkpt lat="48.60703" lon="1.97884">
        <ele>104.9</ele>
        <time>2024-03-05T08:52:04Z</time>
      </trkpt>
      <trkpt lat="48.60696" lon="1.97874">
        <ele>105</ele>
        <time>2024-03-05T08:52:12Z</time>
      </trkpt>
      <trkpt lat="48.60686" lon="1.97867">
        <ele>105.3</ele>
        <time>2024-03-05T08:52:21Z</time>
      </trkpt>
      <trkpt lat="48.60677" lon="1.9786">
        <ele>105.6</ele>
        <time>2024-03-05T08:52:28Z</time>
      </trkpt>
      <trkpt lat="48.60669" lon="1.97853">
        <ele>105.6</ele>
        <time>2024-03-05T08:52:36Z</time>
      </trkpt>
      <trkpt lat="48.60661" lon="1.97844">
        <ele>105.5</ele>
        <time>2024-03-05T08:52:44Z</time>
      </trkpt>
      <trkpt lat="48.60654" lon="1.97834">
        <ele>105.5</ele>
        <time>2024-03-05T08:52:51Z</time>
      </trkpt>
      <trkpt lat="48.60647" lon="1.97824">
        <ele>105.7</ele>
        <time>2024-03-05T08:52:57Z</time>
      </trkpt>
      <trkpt lat="48.60639" lon="1.97818">
        <ele>106</ele>
        <time>2024-03-05T08:53:04Z</time>
      </trkpt>
      <trkpt lat="48.6063" lon="1.97809">
        <ele>106</ele>
        <time>2024-03-05T08:53:12Z</time>
      </trkpt>
      <trkpt lat="48.60622" lon="1.97802">
        <ele>105.9</ele>
        <time>2024-03-05T08:53:20Z</time>
      </trkpt>
      <trkpt lat="48.60614" lon="1.97795">
        <ele>106</ele>
        <time>2024-03-05T08:53:26Z</time>
      </trkpt>
      <trkpt lat="48.60605" lon="1.97786">
        <ele>106.4</ele>
        <time>2024-03-05T08:53:33Z</time>
      </trkpt>
      <trkpt lat="48.60597" lon="1.97778">
        <ele>107</ele>
        <time>2024-03-05T08:53:40Z</time>
      </trkpt>
      <trkpt lat="48.60589" lon="1.9777">
        <ele>107.4</ele>
        <time>2024-03-05T08:53:47Z</time>
      </trkpt>
      <trkpt lat="48.60581" lon="1.9776">
        <ele>107.5</ele>
        <time>2024-03-05T08:53:54Z</time>
      </trkpt>
      <trkpt lat="48.60573" lon="1.97753">
        <ele>107.8</ele>
        <time>2024-03-05T08:54:00Z</time>
      </trkpt>
      <trkpt lat="48.60566" lon="1.97744">
        <ele>108.3</ele>
        <time>2024-03-05T08:54:07Z</time>
      </trkpt>
      <trkpt lat="48.60559" lon="1.97735">
        <ele>108.8</ele>
        <time>2024-03-05T08:54:14Z</time>
      </trkpt>
      <trkpt lat="48.60551" lon="1.97728">
        <ele>109.3</ele>
        <time>2024-03-05T08:54:21Z</time>
      </trkpt>
      <trkpt lat="48.60542" lon="1.97723">
        <ele>110</ele>
        <time>2024-03-05T08:54:29Z</time>
      </trkpt>
      <trkpt lat="48.60534" lon="1.97716">
        <ele>110.5</ele>
        <time>2024-03-05T08:54:47Z</time>
      </trkpt>
      <trkpt lat="48.60526" lon="1.97709">
        <ele>111.1</ele>
        <time>2024-03-05T08:54:55Z</time>
      </trkpt>
      <trkpt lat="48.60519" lon="1.977">
        <ele>111.3</ele>
        <time>2024-03-05T08:55:03Z</time>
      </trkpt>
      <trkpt lat="48.60511" lon="1.97693">
        <ele>111.6</ele>
        <time>2024-03-05T08:55:11Z</time>
      </trkpt>
      <trkpt lat="48.60504" lon="1.97683">
        <ele>111.8</ele>
        <time>2024-03-05T08:55:19Z</time>
      </trkpt>
      <trkpt lat="48.60495" lon="1.97675">
        <ele>112.2</ele>
        <time>2024-03-05T08:55:27Z</time>
      </trkpt>
      <trkpt lat="48.60487" lon="1.97668">
        <ele>112.5</ele>
        <time>2024-03-05T08:55:35Z</time>
      </trkpt>
      <trkpt lat="48.60479" lon="1.97661">
        <ele>112.8</ele>
        <time>2024-03-05T08:55:42Z</time>
      </trkpt>
      <trkpt lat="48.60471" lon="1.97652">
        <ele>113.1</ele>
        <time>2024-03-05T08:55:49Z</time>
      </trkpt>
      <trkpt lat="48.60463" lon="1.97646">
        <ele>113.7</ele>
        <time>2024-03-05T08:55:55Z</time>
      </trkpt>
      <trkpt lat="48.60456" lon="1.97637">
        <ele>114.2</ele>
        <time>2024-03-05T08:56:01Z</time>
      </trkpt>
      <trkpt lat="48.60449" lon="1.97626">
        <ele>114.7</ele>
        <time>2024-03-05T08:56:08Z</time>
      </trkpt>
      <trkpt lat="48.60441" lon="1.97617">
        <ele>115.1</ele>
        <time>2024-03-05T08:56:15Z</time>
      </trkpt>
      <trkpt lat="48.60433" lon="1.97608">
        <ele>115.3</ele>
        <time>2024-03-05T08:56:23Z</time>
      </trkpt>
      <trkpt lat="48.60424" lon="1.976">
        <ele>115.6</ele>
        <time>2024-03-05T08:56:29Z</time>
      </trkpt>
      <trkpt lat="48.60416" lon="1.97593">
        <ele>116.1</ele>
        <time>2024-03-05T08:56:36Z</time>
      </trkpt>
      <trkpt lat="48.60408" lon="1.97584">
        <ele>116.6</ele>
        <time>2024-03-05T08:56:42Z</time>
      </trkpt>
      <trkpt lat="48.604" lon="1.97578">
        <ele>117.2</ele>
        <time>2024-03-05T08:56:48Z</time>
      </trkpt>
      <trkpt lat="48.60392" lon="1.97569">
        <ele>117.7</ele>
        <time>2024-03-05T08:56:54Z</time>
      </trkpt>
      <trkpt lat="48.60383" lon="1.97561">
        <ele>118.6</ele>
        <time>2024-03-05T08:57:00Z</time>
      </trkpt>
      <trkpt lat="48.60375" lon="1.97554">
        <ele>119.4</ele>
        <time>2024-03-05T08:57:06Z</time>
      </trkpt>
      <trkpt lat="48.60367" lon="1.97547">
        <ele>120.1</ele>
        <time>2024-03-05T08:57:14Z</time>
      </trkpt>
      <trkpt lat="48.60358" lon="1.97541">
        <ele>120.8</ele>
        <time>2024-03-05T08:57:22Z</time>
      </trkpt>
      <trkpt lat="48.6035" lon="1.97533">
        <ele>121.1</ele>
        <time>2024-03-05T08:57:30Z</time>
      </trkpt>
      <trkpt lat="48.60342" lon="1.97523">
        <ele>121.2</ele>
        <time>2024-03-05T08:57:39Z</time>
      </trkpt>
      <trkpt lat="48.60334" lon="1.97515">
        <ele>121.4</ele>
        <time>2024-03-05T08:57:46Z</time>
      </trkpt>
      <trkpt lat="48.60327" lon="1.97506">
        <ele>121.6</ele>
        <time>2024-03-05T08:57:52Z</time>
      </trkpt>
      <trkpt lat="48.60321" lon="1.97494">
        <ele>121.8</ele>
        <time>2024-03-05T08:58:00Z</time>
      </trkpt>
      <trkpt lat="48.60312" lon="1.97486">
        <ele>122.4</ele>
        <time>2024-03-05T08:58:08Z</time>
      </trkpt>
      <trkpt lat="48.60304" lon="1.97478">
        <ele>123.2</ele>
        <time>2024-03-05T08:58:15Z</time>
      </trkpt>
      <trkpt lat="48.60296" lon="1.97472">
        <ele>124.4</ele>
        <time>2024-03-05T08:58:23Z</time>
      </trkpt>
      <trkpt lat="48.6029" lon="1.9746">
        <ele>125.2</ele>
        <time>2024-03-05T08:58:33Z</time>
      </trkpt>
      <trkpt lat="48.60282" lon="1.97452">
        <ele>126.4</ele>
        <time>2024-03-05T08:58:40Z</time>
      </trkpt>
      <trkpt lat="48.60274" lon="1.97444">
        <ele>127.6</ele>
        <time>2024-03-05T08:58:48Z</time>
      </trkpt>
      <trkpt lat="48.60265" lon="1.97438">
        <ele>129.1</ele>
        <time>2024-03-05T08:58:57Z</time>
      </trkpt>
      <trkpt lat="48.60257" lon="1.97433">
        <ele>130.5</ele>
        <time>2024-03-05T08:59:06Z</time>
      </trkpt>
      <trkpt lat="48.60248" lon="1.97426">
        <ele>131.9</ele>
        <time>2024-03-05T08:59:14Z</time>
      </trkpt>
      <trkpt lat="48.6024" lon="1.97419">
        <ele>133.7</ele>
        <time>2024-03-05T08:59:22Z</time>
      </trkpt>
      <trkpt lat="48.60231" lon="1.97412">
        <ele>135.5</ele>
        <time>2024-03-05T08:59:30Z</time>
      </trkpt>
      <trkpt lat="48.60224" lon="1.97403">
        <ele>137.2</ele>
        <time>2024-03-05T08:59:38Z</time>
      </trkpt>
      <trkpt lat="48.60215" lon="1.97395">
        <ele>138.8</ele>
        <time>2024-03-05T08:59:47Z</time>
      </trkpt>
      <trkpt lat="48.60207" lon="1.97385">
        <ele>140.3</ele>
        <time>2024-03-05T08:59:56Z</time>
      </trkpt>
      <trkpt lat="48.60199" lon="1.97377">
        <ele>141.7</ele>
        <time>2024-03-05T09:00:04Z</time>
      </trkpt>
      <trkpt lat="48.6019" lon="1.9737">
        <ele>142.8</ele>
        <time>2024-03-05T09:00:12Z</time>
      </trkpt>
      <trkpt lat="48.60183" lon="1.97362">
        <ele>143.4</ele>
        <time>2024-03-05T09:00:19Z</time>
      </trkpt>
      <trkpt lat="48.60175" lon="1.97355">
        <ele>143.7</ele>
        <time>2024-03-05T09:00:26Z</time>
      </trkpt>
      <trkpt lat="48.60167" lon="1.97346">
        <ele>144</ele>
        <time>2024-03-05T09:00:36Z</time>
      </trkpt>
      <trkpt lat="48.60161" lon="1.97337">
        <ele>144</ele>
        <time>2024-03-05T09:00:45Z</time>
      </trkpt>
      <trkpt lat="48.60159" lon="1.97323">
        <ele>144.1</ele>
        <time>2024-03-05T09:00:57Z</time>
      </trkpt>
      <trkpt lat="48.60162" lon="1.97309">
        <ele>144.2</ele>
        <time>2024-03-05T09:02:16Z</time>
      </trkpt>
      <trkpt lat="48.60169" lon="1.97298">
        <ele>143.9</ele>
        <time>2024-03-05T09:02:26Z</time>
      </trkpt>
      <trkpt lat="48.60174" lon="1.97286">
        <ele>143.5</ele>
        <time>2024-03-05T09:02:32Z</time>
      </trkpt>
      <trkpt lat="48.6018" lon="1.97275">
        <ele>142.9</ele>
        <time>2024-03-05T09:02:39Z</time>
      </trkpt>
      <trkpt lat="48.60186" lon="1.97264">
        <ele>141.7</ele>
        <time>2024-03-05T09:02:47Z</time>
      </trkpt>
      <trkpt lat="48.60194" lon="1.97253">
        <ele>140.3</ele>
        <time>2024-03-05T09:02:55Z</time>
      </trkpt>
      <trkpt lat="48.60199" lon="1.97241">
        <ele>138.3</ele>
        <time>2024-03-05T09:03:02Z</time>
      </trkpt>
      <trkpt lat="48.60203" lon="1.97229">
        <ele>136.3</ele>
        <time>2024-03-05T09:03:09Z</time>
      </trkpt>
      <trkpt lat="48.60208" lon="1.97216">
        <ele>134.4</ele>
        <time>2024-03-05T09:03:16Z</time>
      </trkpt>
      <trkpt lat="48.60214" lon="1.97205">
        <ele>132.8</ele>
        <time>2024-03-05T09:03:22Z</time>
      </trkpt>
      <trkpt lat="48.60218" lon="1.97192">
        <ele>131.7</ele>
        <time>2024-03-05T09:03:29Z</time>
      </trkpt>
      <trkpt lat="48.60225" lon="1.97179">
        <ele>130.1</ele>
        <time>2024-03-05T09:03:36Z</time>
      </trkpt>
      <trkpt lat="48.60229" lon="1.97165">
        <ele>129</ele>
        <time>2024-03-05T09:03:43Z</time>
      </trkpt>
      <trkpt lat="48.60236" lon="1.97154">
        <ele>127.6</ele>
        <time>2024-03-05T09:03:52Z</time>
      </trkpt>
      <trkpt lat="48.60242" lon="1.97141">
        <ele>126.3</ele>
        <time>2024-03-05T09:03:59Z</time>
      </trkpt>
      <trkpt lat="48.60247" lon="1.97127">
        <ele>125.4</ele>
        <time>2024-03-05T09:04:06Z</time>
      </trkpt>
      <trkpt lat="48.60251" lon="1.97115">
        <ele>124.9</ele>
        <time>2024-03-05T09:04:12Z</time>
      </trkpt>
      <trkpt lat="48.60256" lon="1.97104">
        <ele>124.3</ele>
        <time>2024-03-05T09:04:20Z</time>
      </trkpt>
      <trkpt lat="48.60266" lon="1.97111">
        <ele>123.9</ele>
        <time>2024-03-05T09:04:38Z</time>
      </trkpt>
      <trkpt lat="48.60274" lon="1.97117">
        <ele>123.2</ele>
        <time>2024-03-05T09:04:46Z</time>
      </trkpt>
      <trkpt lat="48.60279" lon="1.97129">
        <ele>122.9</ele>
        <time>2024-03-05T09:04:53Z</time>
      </trkpt>
      <trkpt lat="48.60284" lon="1.97141">
        <ele>122.5</ele>
        <time>2024-03-05T09:05:01Z</time>
      </trkpt>
      <trkpt lat="48.60287" lon="1.97154">
        <ele>122.3</ele>
        <time>2024-03-05T09:05:08Z</time>
      </trkpt>
      <trkpt lat="48.60291" lon="1.97167">
        <ele>122</ele>
        <time>2024-03-05T09:05:15Z</time>
      </trkpt>
      <trkpt lat="48.60298" lon="1.97177">
        <ele>121.6</ele>
        <time>2024-03-05T09:05:21Z</time>
      </trkpt>
      <trkpt lat="48.60305" lon="1.97188">
        <ele>121</ele>
        <time>2024-03-05T09:05:27Z</time>
      </trkpt>
      <trkpt lat="48.60314" lon="1.97196">
        <ele>120.4</ele>
        <time>2024-03-05T09:05:33Z</time>
      </trkpt>
      <trkpt lat="48.60321" lon="1.97207">
        <ele>119.9</ele>
        <time>2024-03-05T09:05:42Z</time>
      </trkpt>
      <trkpt lat="48.60327" lon="1.97217">
        <ele>119.5</ele>
        <time>2024-03-05T09:05:49Z</time>
      </trkpt>
      <trkpt lat="48.60331" lon="1.97231">
        <ele>119.2</ele>
        <time>2024-03-05T09:05:55Z</time>
      </trkpt>
      <trkpt lat="48.60336" lon="1.97243">
        <ele>118.8</ele>
        <time>2024-03-05T09:06:02Z</time>
      </trkpt>
      <trkpt lat="48.60333" lon="1.97256">
        <ele>119</ele>
        <time>2024-03-05T09:06:09Z</time>
      </trkpt>
      <trkpt lat="48.60337" lon="1.9727">
        <ele>118.7</ele>
        <time>2024-03-05T09:06:16Z</time>
      </trkpt>
      <trkpt lat="48.60345" lon="1.97278">
        <ele>118.2</ele>
        <time>2024-03-05T09:06:23Z</time>
      </trkpt>
      <trkpt lat="48.60352" lon="1.97286">
        <ele>117.7</ele>
        <time>2024-03-05T09:06:30Z</time>
      </trkpt>
      <trkpt lat="48.60358" lon="1.97296">
        <ele>117.2</ele>
        <time>2024-03-05T09:06:38Z</time>
      </trkpt>
      <trkpt lat="48.60367" lon="1.97304">
        <ele>116.6</ele>
        <time>2024-03-05T09:06:44Z</time>
      </trkpt>
      <trkpt lat="48.60374" lon="1.97313">
        <ele>116</ele>
        <time>2024-03-05T09:06:49Z</time>
      </trkpt>
      <trkpt lat="48.60381" lon="1.97323">
        <ele>115.6</ele>
        <time>2024-03-05T09:06:55Z</time>
      </trkpt>
      <trkpt lat="48.60388" lon="1.97332">
        <ele>115.1</ele>
        <time>2024-03-05T09:07:01Z</time>
      </trkpt>
      <trkpt lat="48.60397" lon="1.9734">
        <ele>114.7</ele>
        <time>2024-03-05T09:07:08Z</time>
      </trkpt>
      <trkpt lat="48.60406" lon="1.97346">
        <ele>114.4</ele>
        <time>2024-03-05T09:07:14Z</time>
      </trkpt>
      <trkpt lat="48.60413" lon="1.97355">
        <ele>114.1</ele>
        <time>2024-03-05T09:07:21Z</time>
      </trkpt>
      <trkpt lat="48.60421" lon="1.97361">
        <ele>114</ele>
        <time>2024-03-05T09:07:27Z</time>
      </trkpt>
      <trkpt lat="48.60428" lon="1.9737">
        <ele>114</ele>
        <time>2024-03-05T09:07:33Z</time>
      </trkpt>
      <trkpt lat="48.60437" lon="1.97378">
        <ele>114</ele>
        <time>2024-03-05T09:07:38Z</time>
      </trkpt>
      <trkpt lat="48.60445" lon="1.97388">
        <ele>114</ele>
        <time>2024-03-05T09:07:45Z</time>
      </trkpt>
      <trkpt lat="48.60452" lon="1.97397">
        <ele>113.7</ele>
        <time>2024-03-05T09:07:50Z</time>
      </trkpt>
      <trkpt lat="48.60458" lon="1.97408">
        <ele>113.5</ele>
        <time>2024-03-05T09:07:56Z</time>
      </trkpt>
      <trkpt lat="48.60465" lon="1.97419">
        <ele>113.2</ele>
        <time>2024-03-05T09:08:03Z</time>
      </trkpt>
      <trkpt lat="48.60472" lon="1.9743">
        <ele>113</ele>
        <time>2024-03-05T09:08:10Z</time>
      </trkpt>
      <trkpt lat="48.6048" lon="1.97439">
        <ele>112.7</ele>
        <time>2024-03-05T09:08:17Z</time>
      </trkpt>
      <trkpt lat="48.6049" lon="1.97443">
        <ele>112.4</ele>
        <time>2024-03-05T09:08:25Z</time>
      </trkpt>
      <trkpt lat="48.605" lon="1.97449">
        <ele>112</ele>
        <time>2024-03-05T09:08:31Z</time>
      </trkpt>
      <trkpt lat="48.60508" lon="1.97455">
        <ele>111.7</ele>
        <time>2024-03-05T09:08:38Z</time>
      </trkpt>
      <trkpt lat="48.60517" lon="1.97459">
        <ele>111.4</ele>
        <time>2024-03-05T09:08:45Z</time>
      </trkpt>
      <trkpt lat="48.60527" lon="1.97465">
        <ele>111</ele>
        <time>2024-03-05T09:08:52Z</time>
      </trkpt>
      <trkpt lat="48.60536" lon="1.97473">
        <ele>110.7</ele>
        <time>2024-03-05T09:08:59Z</time>
      </trkpt>
      <trkpt lat="48.60545" lon="1.9748">
        <ele>110.3</ele>
        <time>2024-03-05T09:09:06Z</time>
      </trkpt>
      <trkpt lat="48.60553" lon="1.97489">
        <ele>110</ele>
        <time>2024-03-05T09:09:12Z</time>
      </trkpt>
      <trkpt lat="48.60561" lon="1.97499">
        <ele>110</ele>
        <time>2024-03-05T09:09:19Z</time>
      </trkpt>
      <trkpt lat="48.60568" lon="1.97507">
        <ele>109.7</ele>
        <time>2024-03-05T09:09:26Z</time>
      </trkpt>
      <trkpt lat="48.60576" lon="1.97517">
        <ele>109.4</ele>
        <time>2024-03-05T09:09:33Z</time>
      </trkpt>
      <trkpt lat="48.60585" lon="1.97524">
        <ele>109.1</ele>
        <time>2024-03-05T09:09:40Z</time>
      </trkpt>
      <trkpt lat="48.60593" lon="1.97532">
        <ele>108.9</ele>
        <time>2024-03-05T09:09:48Z</time>
      </trkpt>
      <trkpt lat="48.60599" lon="1.97542">
        <ele>108.7</ele>
        <time>2024-03-05T09:10:34Z</time>
      </trkpt>
      <trkpt lat="48.6061" lon="1.9754">
        <ele>108.6</ele>
        <time>2024-03-05T09:10:42Z</time>
      </trkpt>
      <trkpt lat="48.6062" lon="1.97537">
        <ele>108.4</ele>
        <time>2024-03-05T09:10:50Z</time>
      </trkpt>
      <trkpt lat="48.60629" lon="1.9754">
        <ele>107.9</ele>
        <time>2024-03-05T09:10:57Z</time>
      </trkpt>
      <trkpt lat="48.60638" lon="1.97539">
        <ele>107.6</ele>
        <time>2024-03-05T09:11:05Z</time>
      </trkpt>
      <trkpt lat="48.60647" lon="1.97533">
        <ele>107.6</ele>
        <time>2024-03-05T09:11:13Z</time>
      </trkpt>
      <trkpt lat="48.60656" lon="1.97528">
        <ele>107.4</ele>
        <time>2024-03-05T09:11:21Z</time>
      </trkpt>
      <trkpt lat="48.60664" lon="1.97523">
        <ele>107.1</ele>
        <time>2024-03-05T09:11:28Z</time>
      </trkpt>
      <trkpt lat="48.60672" lon="1.97512">
        <ele>106.8</ele>
        <time>2024-03-05T09:11:34Z</time>
      </trkpt>
      <trkpt lat="48.60678" lon="1.97501">
        <ele>106.6</ele>
        <time>2024-03-05T09:11:41Z</time>
      </trkpt>
      <trkpt lat="48.60684" lon="1.9749">
        <ele>106.4</ele>
        <time>2024-03-05T09:11:48Z</time>
      </trkpt>
      <trkpt lat="48.6069" lon="1.97478">
        <ele>106.2</ele>
        <time>2024-03-05T09:11:57Z</time>
      </trkpt>
      <trkpt lat="48.60699" lon="1.97478">
        <ele>106</ele>
        <time>2024-03-05T09:12:10Z</time>
      </trkpt>
      <trkpt lat="48.60708" lon="1.9748">
        <ele>106</ele>
        <time>2024-03-05T09:12:18Z</time>
      </trkpt>
      <trkpt lat="48.60717" lon="1.97477">
        <ele>106</ele>
        <time>2024-03-05T09:12:25Z</time>
      </trkpt>
      <trkpt lat="48.60725" lon="1.97471">
        <ele>105.9</ele>
        <time>2024-03-05T09:12:32Z</time>
      </trkpt>
      <trkpt lat="48.60735" lon="1.97467">
        <ele>105.5</ele>
        <time>2024-03-05T09:12:39Z</time>
      </trkpt>
      <trkpt lat="48.60743" lon="1.97461">
        <ele>105.2</ele>
        <time>2024-03-05T09:12:45Z</time>
      </trkpt>
      <trkpt lat="48.60751" lon="1.97454">
        <ele>105</ele>
        <time>2024-03-05T09:12:51Z</time>
      </trkpt>
      <trkpt lat="48.60757" lon="1.97443">
        <ele>105</ele>
        <time>2024-03-05T09:12:57Z</time>
      </trkpt>
      <trkpt lat="48.60755" lon="1.97429">
        <ele>105</ele>
        <time>2024-03-05T09:13:08Z</time>
      </trkpt>
      <trkpt lat="48.60747" lon="1.97422">
        <ele>105.1</ele>
        <time>2024-03-05T09:13:19Z</time>
      </trkpt>
      <trkpt lat="48.60741" lon="1.97411">
        <ele>105.3</ele>
        <time>2024-03-05T09:13:27Z</time>
      </trkpt>
      <trkpt lat="48.60734" lon="1.97401">
        <ele>105.6</ele>
        <time>2024-03-05T09:13:34Z</time>
      </trkpt>
      <trkpt lat="48.60727" lon="1.97389">
        <ele>105.8</ele>
        <time>2024-03-05T09:13:41Z</time>
      </trkpt>
      <trkpt lat="48.60724" lon="1.97376">
        <ele>105.9</ele>
        <time>2024-03-05T09:13:48Z</time>
      </trkpt>
      <trkpt lat="48.60723" lon="1.97362">
        <ele>106</ele>
        <time>2024-03-05T09:13:55Z</time>
      </trkpt>
      <trkpt lat="48.60718" lon="1.97349">
        <ele>106.6</ele>
        <time>2024-03-05T09:14:01Z</time>
      </trkpt>
      <trkpt lat="48.60715" lon="1.97336">
        <ele>107.2</ele>
        <time>2024-03-05T09:14:07Z</time>
      </trkpt>
      <trkpt lat="48.60712" lon="1.97322">
        <ele>107.4</ele>
        <time>2024-03-05T09:14:13Z</time>
      </trkpt>
      <trkpt lat="48.60709" lon="1.97309">
        <ele>107.5</ele>
        <time>2024-03-05T09:14:20Z</time>
      </trkpt>
      <trkpt lat="48.60705" lon="1.97296">
        <ele>107.6</ele>
        <time>2024-03-05T09:14:27Z</time>
      </trkpt>
      <trkpt lat="48.60704" lon="1.97282">
        <ele>107.7</ele>
        <time>2024-03-05T09:14:34Z</time>
      </trkpt>
      <trkpt lat="48.60701" lon="1.97269">
        <ele>108.1</ele>
        <time>2024-03-05T09:14:41Z</time>
      </trkpt>
      <trkpt lat="48.60697" lon="1.97256">
        <ele>108.7</ele>
        <time>2024-03-05T09:14:48Z</time>
      </trkpt>
      <trkpt lat="48.60696" lon="1.97242">
        <ele>109</ele>
        <time>2024-03-05T09:14:55Z</time>
      </trkpt>
      <trkpt lat="48.60699" lon="1.97229">
        <ele>108.8</ele>
        <time>2024-03-05T09:15:02Z</time>
      </trkpt>
      <trkpt lat="48.60702" lon="1.97215">
        <ele>108.7</ele>
        <time>2024-03-05T09:15:09Z</time>
      </trkpt>
      <trkpt lat="48.60706" lon="1.97202">
        <ele>108.6</ele>
        <time>2024-03-05T09:15:16Z</time>
      </trkpt>
      <trkpt lat="48.60708" lon="1.97188">
        <ele>108.5</ele>
        <time>2024-03-05T09:15:24Z</time>
      </trkpt>
      <trkpt lat="48.60705" lon="1.97172">
        <ele>108.6</ele>
        <time>2024-03-05T09:15:32Z</time>
      </trkpt>
      <trkpt lat="48.60701" lon="1.9716">
        <ele>109</ele>
        <time>2024-03-05T09:15:39Z</time>
      </trkpt>
      <trkpt lat="48.60701" lon="1.97144">
        <ele>109.6</ele>
        <time>2024-03-05T09:15:46Z</time>
      </trkpt>
      <trkpt lat="48.60701" lon="1.97128">
        <ele>109.8</ele>
        <time>2024-03-05T09:15:53Z</time>
      </trkpt>
      <trkpt lat="48.60699" lon="1.97115">
        <ele>109.8</ele>
        <time>2024-03-05T09:15:59Z</time>
      </trkpt>
      <trkpt lat="48.60695" lon="1.97102">
        <ele>110.3</ele>
        <time>2024-03-05T09:16:06Z</time>
      </trkpt>
      <trkpt lat="48.60689" lon="1.97091">
        <ele>111.1</ele>
        <time>2024-03-05T09:16:15Z</time>
      </trkpt>
      <trkpt lat="48.60682" lon="1.97081">
        <ele>112</ele>
        <time>2024-03-05T09:16:25Z</time>
      </trkpt>
      <trkpt lat="48.60674" lon="1.97072">
        <ele>112.6</ele>
        <time>2024-03-05T09:16:33Z</time>
      </trkpt>
      <trkpt lat="48.60667" lon="1.97063">
        <ele>113</ele>
        <time>2024-03-05T09:16:40Z</time>
      </trkpt>
      <trkpt lat="48.60659" lon="1.97054">
        <ele>113.6</ele>
        <time>2024-03-05T09:16:48Z</time>
      </trkpt>
      <trkpt lat="48.60656" lon="1.97039">
        <ele>114.1</ele>
        <time>2024-03-05T09:16:56Z</time>
      </trkpt>
      <trkpt lat="48.60655" lon="1.97025">
        <ele>114.4</ele>
        <time>2024-03-05T09:17:04Z</time>
      </trkpt>
      <trkpt lat="48.60656" lon="1.97011">
        <ele>114.6</ele>
        <time>2024-03-05T09:17:10Z</time>
      </trkpt>
      <trkpt lat="48.60657" lon="1.96995">
        <ele>114.8</ele>
        <time>2024-03-05T09:17:17Z</time>
      </trkpt>
      <trkpt lat="48.6066" lon="1.9698">
        <ele>115</ele>
        <time>2024-03-05T09:17:23Z</time>
      </trkpt>
      <trkpt lat="48.60663" lon="1.96968">
        <ele>115.1</ele>
        <time>2024-03-05T09:17:28Z</time>
      </trkpt>
      <trkpt lat="48.60669" lon="1.96955">
        <ele>114.8</ele>
        <time>2024-03-05T09:17:34Z</time>
      </trkpt>
      <trkpt lat="48.60675" lon="1.96942">
        <ele>114.4</ele>
        <time>2024-03-05T09:17:40Z</time>
      </trkpt>
      <trkpt lat="48.60681" lon="1.9693">
        <ele>114.2</ele>
        <time>2024-03-05T09:17:46Z</time>
      </trkpt>
      <trkpt lat="48.60687" lon="1.96918">
        <ele>114.2</ele>
        <time>2024-03-05T09:17:52Z</time>
      </trkpt>
      <trkpt lat="48.60691" lon="1.96905">
        <ele>114.1</ele>
        <time>2024-03-05T09:17:59Z</time>
      </trkpt>
      <trkpt lat="48.60694" lon="1.96891">
        <ele>114</ele>
        <time>2024-03-05T09:18:05Z</time>
      </trkpt>
      <trkpt lat="48.60695" lon="1.96877">
        <ele>114</ele>
        <time>2024-03-05T09:18:11Z</time>
      </trkpt>
      <trkpt lat="48.60697" lon="1.96863">
        <ele>113.9</ele>
        <time>2024-03-05T09:18:18Z</time>
      </trkpt>
      <trkpt lat="48.60698" lon="1.96848">
        <ele>113.9</ele>
        <time>2024-03-05T09:18:25Z</time>
      </trkpt>
      <trkpt lat="48.60699" lon="1.96833">
        <ele>113.9</ele>
        <time>2024-03-05T09:18:31Z</time>
      </trkpt>
      <trkpt lat="48.60703" lon="1.9682">
        <ele>114.2</ele>
        <time>2024-03-05T09:18:37Z</time>
      </trkpt>
      <trkpt lat="48.60705" lon="1.96807">
        <ele>114.6</ele>
        <time>2024-03-05T09:18:43Z</time>
      </trkpt>
      <trkpt lat="48.60708" lon="1.96793">
        <ele>114.5</ele>
        <time>2024-03-05T09:18:50Z</time>
      </trkpt>
      <trkpt lat="48.60713" lon="1.96781">
        <ele>114.3</ele>
        <time>2024-03-05T09:19:02Z</time>
      </trkpt>
      <trkpt lat="48.60719" lon="1.9679">
        <ele>114.1</ele>
        <time>2024-03-05T09:19:20Z</time>
      </trkpt>
      <trkpt lat="48.60727" lon="1.96798">
        <ele>113.7</ele>
        <time>2024-03-05T09:19:27Z</time>
      </trkpt>
      <trkpt lat="48.60718" lon="1.96798">
        <ele>114.2</ele>
        <time>2024-03-05T09:20:45Z</time>
      </trkpt>
      <trkpt lat="48.60709" lon="1.96802">
        <ele>114.5</ele>
        <time>2024-03-05T09:21:34Z</time>
      </trkpt>
      <trkpt lat="48.60716" lon="1.96792">
        <ele>114.2</ele>
        <time>2024-03-05T09:23:30Z</time>
      </trkpt>
      <trkpt lat="48.60709" lon="1.96782">
        <ele>114.5</ele>
        <time>2024-03-05T09:23:43Z</time>
      </trkpt>
      <trkpt lat="48.607" lon="1.96773">
        <ele>114.8</ele>
        <time>2024-03-05T09:23:51Z</time>
      </trkpt>
      <trkpt lat="48.60692" lon="1.96764">
        <ele>115.2</ele>
        <time>2024-03-05T09:23:59Z</time>
      </trkpt>
      <trkpt lat="48.60683" lon="1.96757">
        <ele>115.8</ele>
        <time>2024-03-05T09:24:06Z</time>
      </trkpt>
      <trkpt lat="48.60675" lon="1.96747">
        <ele>116.5</ele>
        <time>2024-03-05T09:24:14Z</time>
      </trkpt>
      <trkpt lat="48.60667" lon="1.96738">
        <ele>117</ele>
        <time>2024-03-05T09:24:21Z</time>
      </trkpt>
      <trkpt lat="48.60657" lon="1.96733">
        <ele>117.6</ele>
        <time>2024-03-05T09:24:29Z</time>
      </trkpt>
      <trkpt lat="48.60649" lon="1.96726">
        <ele>118.2</ele>
        <time>2024-03-05T09:24:38Z</time>
      </trkpt>
      <trkpt lat="48.60641" lon="1.96716">
        <ele>118.8</ele>
        <time>2024-03-05T09:24:46Z</time>
      </trkpt>
      <trkpt lat="48.60633" lon="1.96707">
        <ele>119.5</ele>
        <time>2024-03-05T09:24:55Z</time>
      </trkpt>
      <trkpt lat="48.60626" lon="1.96698">
        <ele>119.9</ele>
        <time>2024-03-05T09:25:01Z</time>
      </trkpt>
      <trkpt lat="48.60617" lon="1.96691">
        <ele>120.6</ele>
        <time>2024-03-05T09:25:07Z</time>
      </trkpt>
      <trkpt lat="48.60609" lon="1.96684">
        <ele>121.2</ele>
        <time>2024-03-05T09:25:17Z</time>
      </trkpt>
      <trkpt lat="48.60601" lon="1.96674">
        <ele>121.7</ele>
        <time>2024-03-05T09:25:26Z</time>
      </trkpt>
      <trkpt lat="48.60594" lon="1.96666">
        <ele>122.3</ele>
        <time>2024-03-05T09:25:33Z</time>
      </trkpt>
      <trkpt lat="48.60586" lon="1.96659">
        <ele>123.1</ele>
        <time>2024-03-05T09:25:39Z</time>
      </trkpt>
      <trkpt lat="48.60577" lon="1.96651">
        <ele>124.2</ele>
        <time>2024-03-05T09:25:45Z</time>
      </trkpt>
      <trkpt lat="48.60568" lon="1.96644">
        <ele>125.4</ele>
        <time>2024-03-05T09:25:53Z</time>
      </trkpt>
      <trkpt lat="48.60561" lon="1.96633">
        <ele>126.7</ele>
        <time>2024-03-05T09:26:02Z</time>
      </trkpt>
      <trkpt lat="48.60553" lon="1.96626">
        <ele>127.9</ele>
        <time>2024-03-05T09:26:09Z</time>
      </trkpt>
      <trkpt lat="48.60545" lon="1.96618">
        <ele>129.5</ele>
        <time>2024-03-05T09:26:17Z</time>
      </trkpt>
      <trkpt lat="48.60537" lon="1.96611">
        <ele>131.4</ele>
        <time>2024-03-05T09:26:25Z</time>
      </trkpt>
      <trkpt lat="48.60529" lon="1.96602">
        <ele>133.1</ele>
        <time>2024-03-05T09:26:33Z</time>
      </trkpt>
      <trkpt lat="48.60521" lon="1.96595">
        <ele>134.5</ele>
        <time>2024-03-05T09:26:42Z</time>
      </trkpt>
      <trkpt lat="48.60513" lon="1.96587">
        <ele>135.9</ele>
        <time>2024-03-05T09:26:51Z</time>
      </trkpt>
      <trkpt lat="48.60504" lon="1.96582">
        <ele>137.4</ele>
        <time>2024-03-05T09:27:01Z</time>
      </trkpt>
      <trkpt lat="48.60496" lon="1.96589">
        <ele>137.9</ele>
        <time>2024-03-05T09:27:10Z</time>
      </trkpt>
      <trkpt lat="48.60488" lon="1.96598">
        <ele>138</ele>
        <time>2024-03-05T09:27:21Z</time>
      </trkpt>
      <trkpt lat="48.60481" lon="1.96607">
        <ele>138.2</ele>
        <time>2024-03-05T09:27:30Z</time>
      </trkpt>
      <trkpt lat="48.60474" lon="1.96618">
        <ele>138.5</ele>
        <time>2024-03-05T09:27:38Z</time>
      </trkpt>
      <trkpt lat="48.6047" lon="1.96629">
        <ele>138.6</ele>
        <time>2024-03-05T09:27:46Z</time>
      </trkpt>
      <trkpt lat="48.60464" lon="1.96641">
        <ele>138.9</ele>
        <time>2024-03-05T09:27:53Z</time>
      </trkpt>
      <trkpt lat="48.60458" lon="1.96655">
        <ele>139.2</ele>
        <time>2024-03-05T09:28:02Z</time>
      </trkpt>
      <trkpt lat="48.60453" lon="1.96667">
        <ele>139.4</ele>
        <time>2024-03-05T09:28:10Z</time>
      </trkpt>
      <trkpt lat="48.60447" lon="1.96679">
        <ele>140.2</ele>
        <time>2024-03-05T09:28:17Z</time>
      </trkpt>
      <trkpt lat="48.60443" lon="1.96693">
        <ele>141</ele>
        <time>2024-03-05T09:28:23Z</time>
      </trkpt>
      <trkpt lat="48.60437" lon="1.96705">
        <ele>141.4</ele>
        <time>2024-03-05T09:28:30Z</time>
      </trkpt>
      <trkpt lat="48.6043" lon="1.96715">
        <ele>141.9</ele>
        <time>2024-03-05T09:28:40Z</time>
      </trkpt>
      <trkpt lat="48.60426" lon="1.96728">
        <ele>142.3</ele>
        <time>2024-03-05T09:28:46Z</time>
      </trkpt>
      <trkpt lat="48.6042" lon="1.96739">
        <ele>142.8</ele>
        <time>2024-03-05T09:28:53Z</time>
      </trkpt>
      <trkpt lat="48.60415" lon="1.9675">
        <ele>143</ele>
        <time>2024-03-05T09:29:00Z</time>
      </trkpt>
      <trkpt lat="48.6041" lon="1.96763">
        <ele>142.9</ele>
        <time>2024-03-05T09:29:08Z</time>
      </trkpt>
      <trkpt lat="48.60408" lon="1.96777">
        <ele>142.7</ele>
        <time>2024-03-05T09:29:34Z</time>
      </trkpt>
      <trkpt lat="48.60406" lon="1.96791">
        <ele>142.3</ele>
        <time>2024-03-05T09:30:36Z</time>
      </trkpt>
      <trkpt lat="48.60397" lon="1.96786">
        <ele>142.2</ele>
        <time>2024-03-05T09:32:28Z</time>
      </trkpt>
      <trkpt lat="48.60389" lon="1.96782">
        <ele>142</ele>
        <time>2024-03-05T09:32:37Z</time>
      </trkpt>
      <trkpt lat="48.60381" lon="1.96774">
        <ele>141.8</ele>
        <time>2024-03-05T09:32:45Z</time>
      </trkpt>
      <trkpt lat="48.60376" lon="1.96762">
        <ele>142.1</ele>
        <time>2024-03-05T09:32:53Z</time>
      </trkpt>
      <trkpt lat="48.60371" lon="1.96749">
        <ele>142.4</ele>
        <time>2024-03-05T09:33:01Z</time>
      </trkpt>
      <trkpt lat="48.60365" lon="1.96737">
        <ele>142.2</ele>
        <time>2024-03-05T09:33:09Z</time>
      </trkpt>
      <trkpt lat="48.60357" lon="1.96729">
        <ele>141.7</ele>
        <time>2024-03-05T09:33:18Z</time>
      </trkpt>
      <trkpt lat="48.60347" lon="1.96729">
        <ele>140.9</ele>
        <time>2024-03-05T09:33:28Z</time>
      </trkpt>
      <trkpt lat="48.60337" lon="1.96728">
        <ele>140.1</ele>
        <time>2024-03-05T09:33:36Z</time>
      </trkpt>
      <trkpt lat="48.60329" lon="1.9672">
        <ele>139.2</ele>
        <time>2024-03-05T09:33:44Z</time>
      </trkpt>
      <trkpt lat="48.6032" lon="1.96713">
        <ele>137.8</ele>
        <time>2024-03-05T09:33:52Z</time>
      </trkpt>
      <trkpt lat="48.60318" lon="1.96699">
        <ele>137.7</ele>
        <time>2024-03-05T09:34:00Z</time>
      </trkpt>
      <trkpt lat="48.60314" lon="1.96688">
        <ele>137.4</ele>
        <time>2024-03-05T09:34:07Z</time>
      </trkpt>
      <trkpt lat="48.60308" lon="1.96676">
        <ele>137</ele>
        <time>2024-03-05T09:34:15Z</time>
      </trkpt>
      <trkpt lat="48.60303" lon="1.96664">
        <ele>136.7</ele>
        <time>2024-03-05T09:34:23Z</time>
      </trkpt>
      <trkpt lat="48.60301" lon="1.96649">
        <ele>137</ele>
        <time>2024-03-05T09:34:33Z</time>
      </trkpt>
      <trkpt lat="48.60299" lon="1.96636">
        <ele>137.1</ele>
        <time>2024-03-05T09:34:43Z</time>
      </trkpt>
      <trkpt lat="48.60299" lon="1.96622">
        <ele>137.6</ele>
        <time>2024-03-05T09:34:50Z</time>
      </trkpt>
      <trkpt lat="48.60298" lon="1.96607">
        <ele>137.9</ele>
        <time>2024-03-05T09:34:57Z</time>
      </trkpt>
      <trkpt lat="48.603" lon="1.96593">
        <ele>138.1</ele>
        <time>2024-03-05T09:35:04Z</time>
      </trkpt>
      <trkpt lat="48.60298" lon="1.96578">
        <ele>138.1</ele>
        <time>2024-03-05T09:35:11Z</time>
      </trkpt>
      <trkpt lat="48.603" lon="1.96562">
        <ele>139</ele>
        <time>2024-03-05T09:35:19Z</time>
      </trkpt>
      <trkpt lat="48.603" lon="1.96547">
        <ele>139.3</ele>
        <time>2024-03-05T09:35:27Z</time>
      </trkpt>
      <trkpt lat="48.60299" lon="1.96533">
        <ele>139.3</ele>
        <time>2024-03-05T09:35:34Z</time>
      </trkpt>
      <trkpt lat="48.60298" lon="1.96519">
        <ele>139.4</ele>
        <time>2024-03-05T09:35:40Z</time>
      </trkpt>
      <trkpt lat="48.60296" lon="1.96506">
        <ele>139.4</ele>
        <time>2024-03-05T09:35:46Z</time>
      </trkpt>
      <trkpt lat="48.60292" lon="1.96492">
        <ele>139.1</ele>
        <time>2024-03-05T09:35:53Z</time>
      </trkpt>
      <trkpt lat="48.60286" lon="1.9648">
        <ele>138.7</ele>
        <time>2024-03-05T09:35:58Z</time>
      </trkpt>
      <trkpt lat="48.60278" lon="1.96471">
        <ele>138</ele>
        <time>2024-03-05T09:36:05Z</time>
      </trkpt>
      <trkpt lat="48.60277" lon="1.96455">
        <ele>138</ele>
        <time>2024-03-05T09:36:12Z</time>
      </trkpt>
      <trkpt lat="48.60281" lon="1.96442">
        <ele>138.3</ele>
        <time>2024-03-05T09:36:20Z</time>
      </trkpt>
      <trkpt lat="48.60284" lon="1.96428">
        <ele>138.7</ele>
        <time>2024-03-05T09:36:27Z</time>
      </trkpt>
      <trkpt lat="48.6029" lon="1.96415">
        <ele>139.3</ele>
        <time>2024-03-05T09:36:35Z</time>
      </trkpt>
      <trkpt lat="48.60296" lon="1.96404">
        <ele>139.7</ele>
        <time>2024-03-05T09:36:43Z</time>
      </trkpt>
      <trkpt lat="48.60301" lon="1.96391">
        <ele>139.8</ele>
        <time>2024-03-05T09:36:50Z</time>
      </trkpt>
      <trkpt lat="48.60307" lon="1.9638">
        <ele>140.1</ele>
        <time>2024-03-05T09:36:58Z</time>
      </trkpt>
      <trkpt lat="48.60311" lon="1.96367">
        <ele>140.6</ele>
        <time>2024-03-05T09:37:07Z</time>
      </trkpt>
      <trkpt lat="48.6031" lon="1.96352">
        <ele>140.5</ele>
        <time>2024-03-05T09:37:14Z</time>
      </trkpt>
      <trkpt lat="48.6031" lon="1.96338">
        <ele>140.5</ele>
        <time>2024-03-05T09:37:21Z</time>
      </trkpt>
      <trkpt lat="48.60306" lon="1.96325">
        <ele>140</ele>
        <time>2024-03-05T09:37:27Z</time>
      </trkpt>
      <trkpt lat="48.60304" lon="1.9631">
        <ele>140</ele>
        <time>2024-03-05T09:37:34Z</time>
      </trkpt>
      <trkpt lat="48.60299" lon="1.96295">
        <ele>140.7</ele>
        <time>2024-03-05T09:37:41Z</time>
      </trkpt>
      <trkpt lat="48.60292" lon="1.96285">
        <ele>141.1</ele>
        <time>2024-03-05T09:37:46Z</time>
      </trkpt>
      <trkpt lat="48.60285" lon="1.96276">
        <ele>141.3</ele>
        <time>2024-03-05T09:37:51Z</time>
      </trkpt>
      <trkpt lat="48.60279" lon="1.96264">
        <ele>141.5</ele>
        <time>2024-03-05T09:37:58Z</time>
      </trkpt>
      <trkpt lat="48.60273" lon="1.96252">
        <ele>141.9</ele>
        <time>2024-03-05T09:38:05Z</time>
      </trkpt>
      <trkpt lat="48.60268" lon="1.96239">
        <ele>142.3</ele>
        <time>2024-03-05T09:38:13Z</time>
      </trkpt>
      <trkpt lat="48.60262" lon="1.96226">
        <ele>142.4</ele>
        <time>2024-03-05T09:38:19Z</time>
      </trkpt>
      <trkpt lat="48.6026" lon="1.96212">
        <ele>142.6</ele>
        <time>2024-03-05T09:38:25Z</time>
      </trkpt>
      <trkpt lat="48.60252" lon="1.96204">
        <ele>142.7</ele>
        <time>2024-03-05T09:38:32Z</time>
      </trkpt>
      <trkpt lat="48.60247" lon="1.96191">
        <ele>142.7</ele>
        <time>2024-03-05T09:38:39Z</time>
      </trkpt>
      <trkpt lat="48.60249" lon="1.96176">
        <ele>142.3</ele>
        <time>2024-03-05T09:38:47Z</time>
      </trkpt>
      <trkpt lat="48.60251" lon="1.96162">
        <ele>141.8</ele>
        <time>2024-03-05T09:38:53Z</time>
      </trkpt>
      <trkpt lat="48.60245" lon="1.96151">
        <ele>141.6</ele>
        <time>2024-03-05T09:38:59Z</time>
      </trkpt>
      <trkpt lat="48.60239" lon="1.9614">
        <ele>141.8</ele>
        <time>2024-03-05T09:39:05Z</time>
      </trkpt>
      <trkpt lat="48.60234" lon="1.96127">
        <ele>141.3</ele>
        <time>2024-03-05T09:39:12Z</time>
      </trkpt>
      <trkpt lat="48.60229" lon="1.96117">
        <ele>140.9</ele>
        <time>2024-03-05T09:39:19Z</time>
      </trkpt>
      <trkpt lat="48.60222" lon="1.96107">
        <ele>140.5</ele>
        <time>2024-03-05T09:39:25Z</time>
      </trkpt>
      <trkpt lat="48.60222" lon="1.96092">
        <ele>138.9</ele>
        <time>2024-03-05T09:39:37Z</time>
      </trkpt>
      <trkpt lat="48.60224" lon="1.96077">
        <ele>137.2</ele>
        <time>2024-03-05T09:39:45Z</time>
      </trkpt>
      <trkpt lat="48.60228" lon="1.96064">
        <ele>135.3</ele>
        <time>2024-03-05T09:39:53Z</time>
      </trkpt>
      <trkpt lat="48.6023" lon="1.96049">
        <ele>133.4</ele>
        <time>2024-03-05T09:40:01Z</time>
      </trkpt>
      <trkpt lat="48.60231" lon="1.96032">
        <ele>131.5</ele>
        <time>2024-03-05T09:40:08Z</time>
      </trkpt>
      <trkpt lat="48.60234" lon="1.96019">
        <ele>129.7</ele>
        <time>2024-03-05T09:40:14Z</time>
      </trkpt>
      <trkpt lat="48.6023" lon="1.96005">
        <ele>128.1</ele>
        <time>2024-03-05T09:40:22Z</time>
      </trkpt>
      <trkpt lat="48.60224" lon="1.95992">
        <ele>126.7</ele>
        <time>2024-03-05T09:40:27Z</time>
      </trkpt>
      <trkpt lat="48.60222" lon="1.95979">
        <ele>124.9</ele>
        <time>2024-03-05T09:40:33Z</time>
      </trkpt>
      <trkpt lat="48.60226" lon="1.95967">
        <ele>123</ele>
        <time>2024-03-05T09:40:41Z</time>
      </trkpt>
      <trkpt lat="48.60232" lon="1.95955">
        <ele>121</ele>
        <time>2024-03-05T09:40:49Z</time>
      </trkpt>
      <trkpt lat="48.60233" lon="1.9594">
        <ele>119.1</ele>
        <time>2024-03-05T09:40:56Z</time>
      </trkpt>
      <trkpt lat="48.60234" lon="1.95925">
        <ele>117.5</ele>
        <time>2024-03-05T09:41:03Z</time>
      </trkpt>
      <trkpt lat="48.60238" lon="1.95912">
        <ele>116.1</ele>
        <time>2024-03-05T09:41:09Z</time>
      </trkpt>
      <trkpt lat="48.6024" lon="1.95897">
        <ele>115</ele>
        <time>2024-03-05T09:41:18Z</time>
      </trkpt>
      <trkpt lat="48.60238" lon="1.95884">
        <ele>114.3</ele>
        <time>2024-03-05T09:41:28Z</time>
      </trkpt>
      <trkpt lat="48.60239" lon="1.95869">
        <ele>113.7</ele>
        <time>2024-03-05T09:41:45Z</time>
      </trkpt>
      <trkpt lat="48.60243" lon="1.95856">
        <ele>113.2</ele>
        <time>2024-03-05T09:42:22Z</time>
      </trkpt>
      <trkpt lat="48.60248" lon="1.95845">
        <ele>113</ele>
        <time>2024-03-05T09:42:32Z</time>
      </trkpt>
      <trkpt lat="48.60255" lon="1.95835">
        <ele>112.8</ele>
        <time>2024-03-05T09:42:39Z</time>
      </trkpt>
      <trkpt lat="48.60259" lon="1.95822">
        <ele>112.3</ele>
        <time>2024-03-05T09:42:47Z</time>
      </trkpt>
      <trkpt lat="48.60267" lon="1.95814">
        <ele>111.7</ele>
        <time>2024-03-05T09:43:04Z</time>
      </trkpt>
      <trkpt lat="48.60277" lon="1.95809">
        <ele>111.2</ele>
        <time>2024-03-05T09:43:13Z</time>
      </trkpt>
      <trkpt lat="48.60287" lon="1.95811">
        <ele>111.1</ele>
        <time>2024-03-05T09:43:19Z</time>
      </trkpt>
      <trkpt lat="48.60291" lon="1.95824">
        <ele>111.3</ele>
        <time>2024-03-05T09:43:29Z</time>
      </trkpt>
      <trkpt lat="48.603" lon="1.95829">
        <ele>111.2</ele>
        <time>2024-03-05T09:43:34Z</time>
      </trkpt>
      <trkpt lat="48.60309" lon="1.95831">
        <ele>111</ele>
        <time>2024-03-05T09:43:39Z</time>
      </trkpt>
      <trkpt lat="48.60317" lon="1.95837">
        <ele>111.1</ele>
        <time>2024-03-05T09:43:44Z</time>
      </trkpt>
      <trkpt lat="48.60327" lon="1.95844">
        <ele>111.4</ele>
        <time>2024-03-05T09:43:50Z</time>
      </trkpt>
      <trkpt lat="48.60337" lon="1.95847">
        <ele>111.3</ele>
        <time>2024-03-05T09:43:57Z</time>
      </trkpt>
      <trkpt lat="48.60346" lon="1.95853">
        <ele>111.2</ele>
        <time>2024-03-05T09:44:04Z</time>
      </trkpt>
      <trkpt lat="48.60355" lon="1.95856">
        <ele>111</ele>
        <time>2024-03-05T09:44:10Z</time>
      </trkpt>
      <trkpt lat="48.60365" lon="1.95859">
        <ele>110.9</ele>
        <time>2024-03-05T09:44:16Z</time>
      </trkpt>
      <trkpt lat="48.60375" lon="1.95862">
        <ele>111</ele>
        <time>2024-03-05T09:44:22Z</time>
      </trkpt>
      <trkpt lat="48.60384" lon="1.95868">
        <ele>111.3</ele>
        <time>2024-03-05T09:44:33Z</time>
      </trkpt>
      <trkpt lat="48.60393" lon="1.95868">
        <ele>111.1</ele>
        <time>2024-03-05T09:44:40Z</time>
      </trkpt>
      <trkpt lat="48.60402" lon="1.95868">
        <ele>110.9</ele>
        <time>2024-03-05T09:44:45Z</time>
      </trkpt>
      <trkpt lat="48.60413" lon="1.95869">
        <ele>110.7</ele>
        <time>2024-03-05T09:44:51Z</time>
      </trkpt>
      <trkpt lat="48.60423" lon="1.95871">
        <ele>110.5</ele>
        <time>2024-03-05T09:44:57Z</time>
      </trkpt>
      <trkpt lat="48.60432" lon="1.95874">
        <ele>110.4</ele>
        <time>2024-03-05T09:45:08Z</time>
      </trkpt>
      <trkpt lat="48.60442" lon="1.95875">
        <ele>110.1</ele>
        <time>2024-03-05T09:45:13Z</time>
      </trkpt>
      <trkpt lat="48.60451" lon="1.95878">
        <ele>110.2</ele>
        <time>2024-03-05T09:45:19Z</time>
      </trkpt>
      <trkpt lat="48.60461" lon="1.9588">
        <ele>110.4</ele>
        <time>2024-03-05T09:45:25Z</time>
      </trkpt>
      <trkpt lat="48.60467" lon="1.95891">
        <ele>111.1</ele>
        <time>2024-03-05T09:45:37Z</time>
      </trkpt>
      <trkpt lat="48.60478" lon="1.95894">
        <ele>111</ele>
        <time>2024-03-05T09:45:42Z</time>
      </trkpt>
      <trkpt lat="48.60488" lon="1.95899">
        <ele>110.6</ele>
        <time>2024-03-05T09:45:49Z</time>
      </trkpt>
      <trkpt lat="48.60497" lon="1.95903">
        <ele>110.2</ele>
        <time>2024-03-05T09:45:54Z</time>
      </trkpt>
      <trkpt lat="48.60506" lon="1.95909">
        <ele>110.3</ele>
        <time>2024-03-05T09:46:00Z</time>
      </trkpt>
      <trkpt lat="48.60516" lon="1.95912">
        <ele>110.1</ele>
        <time>2024-03-05T09:46:06Z</time>
      </trkpt>
      <trkpt lat="48.60525" lon="1.95918">
        <ele>110.2</ele>
        <time>2024-03-05T09:46:11Z</time>
      </trkpt>
      <trkpt lat="48.60534" lon="1.95925">
        <ele>109.8</ele>
        <time>2024-03-05T09:46:16Z</time>
      </trkpt>
      <trkpt lat="48.60543" lon="1.95933">
        <ele>109.5</ele>
        <time>2024-03-05T09:46:23Z</time>
      </trkpt>
      <trkpt lat="48.6055" lon="1.95943">
        <ele>109.4</ele>
        <time>2024-03-05T09:46:29Z</time>
      </trkpt>
      <trkpt lat="48.60558" lon="1.95951">
        <ele>109.3</ele>
        <time>2024-03-05T09:46:35Z</time>
      </trkpt>
      <trkpt lat="48.60566" lon="1.95956">
        <ele>109.1</ele>
        <time>2024-03-05T09:46:40Z</time>
      </trkpt>
      <trkpt lat="48.60574" lon="1.95963">
        <ele>108.8</ele>
        <time>2024-03-05T09:46:48Z</time>
      </trkpt>
      <trkpt lat="48.60582" lon="1.95971">
        <ele>108.2</ele>
        <time>2024-03-05T09:46:55Z</time>
      </trkpt>
      <trkpt lat="48.60588" lon="1.95981">
        <ele>108.4</ele>
        <time>2024-03-05T09:47:01Z</time>
      </trkpt>
      <trkpt lat="48.60596" lon="1.9599">
        <ele>108.8</ele>
        <time>2024-03-05T09:47:08Z</time>
      </trkpt>
      <trkpt lat="48.60604" lon="1.95997">
        <ele>109.1</ele>
        <time>2024-03-05T09:47:14Z</time>
      </trkpt>
      <trkpt lat="48.60613" lon="1.96005">
        <ele>109.4</ele>
        <time>2024-03-05T09:47:22Z</time>
      </trkpt>
      <trkpt lat="48.60622" lon="1.96009">
        <ele>109.7</ele>
        <time>2024-03-05T09:47:28Z</time>
      </trkpt>
      <trkpt lat="48.60631" lon="1.96011">
        <ele>109.8</ele>
        <time>2024-03-05T09:47:36Z</time>
      </trkpt>
      <trkpt lat="48.6064" lon="1.96006">
        <ele>109.4</ele>
        <time>2024-03-05T09:47:45Z</time>
      </trkpt>
      <trkpt lat="48.6065" lon="1.96005">
        <ele>109.3</ele>
        <time>2024-03-05T09:48:07Z</time>
      </trkpt>
      <trkpt lat="48.6066" lon="1.95999">
        <ele>108.9</ele>
        <time>2024-03-05T09:48:13Z</time>
      </trkpt>
      <trkpt lat="48.60668" lon="1.95991">
        <ele>108.4</ele>
        <time>2024-03-05T09:48:19Z</time>
      </trkpt>
      <trkpt lat="48.60673" lon="1.95979">
        <ele>107.5</ele>
        <time>2024-03-05T09:48:26Z</time>
      </trkpt>
      <trkpt lat="48.60676" lon="1.95965">
        <ele>107</ele>
        <time>2024-03-05T09:48:36Z</time>
      </trkpt>
      <trkpt lat="48.60671" lon="1.95952">
        <ele>107</ele>
        <time>2024-03-05T09:48:42Z</time>
      </trkpt>
      <trkpt lat="48.60664" lon="1.95941">
        <ele>107</ele>
        <time>2024-03-05T09:48:49Z</time>
      </trkpt>
      <trkpt lat="48.60668" lon="1.95929">
        <ele>107</ele>
        <time>2024-03-05T09:50:39Z</time>
      </trkpt>
      <trkpt lat="48.60675" lon="1.95919">
        <ele>107</ele>
        <time>2024-03-05T09:50:47Z</time>
      </trkpt>
      <trkpt lat="48.60683" lon="1.95909">
        <ele>107</ele>
        <time>2024-03-05T09:50:56Z</time>
      </trkpt>
      <trkpt lat="48.60688" lon="1.95897">
        <ele>107</ele>
        <time>2024-03-05T09:51:03Z</time>
      </trkpt>
      <trkpt lat="48.60695" lon="1.95888">
        <ele>107</ele>
        <time>2024-03-05T09:51:10Z</time>
      </trkpt>
      <trkpt lat="48.60701" lon="1.95877">
        <ele>106.8</ele>
        <time>2024-03-05T09:51:17Z</time>
      </trkpt>
      <trkpt lat="48.60702" lon="1.95862">
        <ele>106.7</ele>
        <time>2024-03-05T09:51:23Z</time>
      </trkpt>
      <trkpt lat="48.60699" lon="1.95848">
        <ele>106.8</ele>
        <time>2024-03-05T09:51:29Z</time>
      </trkpt>
      <trkpt lat="48.60697" lon="1.95833">
        <ele>106.9</ele>
        <time>2024-03-05T09:51:36Z</time>
      </trkpt>
      <trkpt lat="48.60699" lon="1.9582">
        <ele>106.9</ele>
        <time>2024-03-05T09:51:42Z</time>
      </trkpt>
      <trkpt lat="48.60702" lon="1.95807">
        <ele>107</ele>
        <time>2024-03-05T09:51:48Z</time>
      </trkpt>
      <trkpt lat="48.60706" lon="1.95792">
        <ele>107.3</ele>
        <time>2024-03-05T09:51:54Z</time>
      </trkpt>
      <trkpt lat="48.60702" lon="1.95777">
        <ele>107.7</ele>
        <time>2024-03-05T09:51:59Z</time>
      </trkpt>
      <trkpt lat="48.60697" lon="1.95762">
        <ele>107.9</ele>
        <time>2024-03-05T09:52:03Z</time>
      </trkpt>
      <trkpt lat="48.60694" lon="1.95748">
        <ele>108</ele>
        <time>2024-03-05T09:52:08Z</time>
      </trkpt>
      <trkpt lat="48.60693" lon="1.95734">
        <ele>108</ele>
        <time>2024-03-05T09:52:15Z</time>
      </trkpt>
      <trkpt lat="48.60688" lon="1.95722">
        <ele>108</ele>
        <time>2024-03-05T09:52:22Z</time>
      </trkpt>
      <trkpt lat="48.60688" lon="1.95708">
        <ele>108</ele>
        <time>2024-03-05T09:52:28Z</time>
      </trkpt>
      <trkpt lat="48.60686" lon="1.95693">
        <ele>108</ele>
        <time>2024-03-05T09:52:35Z</time>
      </trkpt>
      <trkpt lat="48.60682" lon="1.95677">
        <ele>108</ele>
        <time>2024-03-05T09:52:40Z</time>
      </trkpt>
      <trkpt lat="48.60677" lon="1.95664">
        <ele>108</ele>
        <time>2024-03-05T09:52:46Z</time>
      </trkpt>
      <trkpt lat="48.60669" lon="1.95658">
        <ele>108</ele>
        <time>2024-03-05T09:52:51Z</time>
      </trkpt>
      <trkpt lat="48.6066" lon="1.95653">
        <ele>108</ele>
        <time>2024-03-05T09:52:58Z</time>
      </trkpt>
      <trkpt lat="48.60651" lon="1.95648">
        <ele>108</ele>
        <time>2024-03-05T09:53:08Z</time>
      </trkpt>
      <trkpt lat="48.60641" lon="1.95642">
        <ele>108</ele>
        <time>2024-03-05T09:53:15Z</time>
      </trkpt>
      <trkpt lat="48.60632" lon="1.95639">
        <ele>108</ele>
        <time>2024-03-05T09:53:21Z</time>
      </trkpt>
      <trkpt lat="48.60627" lon="1.95627">
        <ele>108</ele>
        <time>2024-03-05T09:53:29Z</time>
      </trkpt>
      <trkpt lat="48.6062" lon="1.95616">
        <ele>108</ele>
        <time>2024-03-05T09:53:35Z</time>
      </trkpt>
      <trkpt lat="48.60613" lon="1.95604">
        <ele>108</ele>
        <time>2024-03-05T09:53:42Z</time>
      </trkpt>
      <trkpt lat="48.60605" lon="1.95594">
        <ele>108.2</ele>
        <time>2024-03-05T09:53:48Z</time>
      </trkpt>
      <trkpt lat="48.60598" lon="1.95586">
        <ele>108.5</ele>
        <time>2024-03-05T09:53:53Z</time>
      </trkpt>
      <trkpt lat="48.60594" lon="1.95574">
        <ele>108.6</ele>
        <time>2024-03-05T09:53:59Z</time>
      </trkpt>
      <trkpt lat="48.6059" lon="1.95561">
        <ele>108.7</ele>
        <time>2024-03-05T09:54:06Z</time>
      </trkpt>
      <trkpt lat="48.60596" lon="1.95548">
        <ele>108.7</ele>
        <time>2024-03-05T09:54:11Z</time>
      </trkpt>
      <trkpt lat="48.606" lon="1.95534">
        <ele>108.9</ele>
        <time>2024-03-05T09:54:17Z</time>
      </trkpt>
      <trkpt lat="48.60605" lon="1.95521">
        <ele>109</ele>
        <time>2024-03-05T09:54:24Z</time>
      </trkpt>
      <trkpt lat="48.60604" lon="1.95507">
        <ele>109</ele>
        <time>2024-03-05T09:54:31Z</time>
      </trkpt>
      <trkpt lat="48.606" lon="1.95494">
        <ele>109</ele>
        <time>2024-03-05T09:54:36Z</time>
      </trkpt>
      <trkpt lat="48.60602" lon="1.9548">
        <ele>109</ele>
        <time>2024-03-05T09:54:43Z</time>
      </trkpt>
      <trkpt lat="48.60599" lon="1.95466">
        <ele>109</ele>
        <time>2024-03-05T09:54:49Z</time>
      </trkpt>
      <trkpt lat="48.60595" lon="1.95452">
        <ele>109</ele>
        <time>2024-03-05T09:54:55Z</time>
      </trkpt>
      <trkpt lat="48.60591" lon="1.95438">
        <ele>109</ele>
        <time>2024-03-05T09:55:01Z</time>
      </trkpt>
      <trkpt lat="48.60587" lon="1.95425">
        <ele>109</ele>
        <time>2024-03-05T09:55:06Z</time>
      </trkpt>
      <trkpt lat="48.60587" lon="1.9541">
        <ele>109</ele>
        <time>2024-03-05T09:55:12Z</time>
      </trkpt>
      <trkpt lat="48.60587" lon="1.95395">
        <ele>109</ele>
        <time>2024-03-05T09:55:20Z</time>
      </trkpt>
      <trkpt lat="48.60586" lon="1.95379">
        <ele>109</ele>
        <time>2024-03-05T09:55:27Z</time>
      </trkpt>
      <trkpt lat="48.60582" lon="1.95366">
        <ele>109.1</ele>
        <time>2024-03-05T09:55:32Z</time>
      </trkpt>
      <trkpt lat="48.60579" lon="1.95352">
        <ele>109.4</ele>
        <time>2024-03-05T09:55:39Z</time>
      </trkpt>
      <trkpt lat="48.60577" lon="1.95337">
        <ele>109.9</ele>
        <time>2024-03-05T09:55:46Z</time>
      </trkpt>
      <trkpt lat="48.60573" lon="1.95323">
        <ele>110</ele>
        <time>2024-03-05T09:55:53Z</time>
      </trkpt>
      <trkpt lat="48.60566" lon="1.95313">
        <ele>110</ele>
        <time>2024-03-05T09:55:59Z</time>
      </trkpt>
      <trkpt lat="48.60567" lon="1.95299">
        <ele>110.1</ele>
        <time>2024-03-05T09:56:05Z</time>
      </trkpt>
      <trkpt lat="48.60568" lon="1.95285">
        <ele>110.4</ele>
        <time>2024-03-05T09:56:11Z</time>
      </trkpt>
      <trkpt lat="48.60566" lon="1.95272">
        <ele>110.7</ele>
        <time>2024-03-05T09:56:18Z</time>
      </trkpt>
      <trkpt lat="48.60569" lon="1.95257">
        <ele>110.9</ele>
        <time>2024-03-05T09:56:26Z</time>
      </trkpt>
      <trkpt lat="48.60568" lon="1.95242">
        <ele>111</ele>
        <time>2024-03-05T09:56:32Z</time>
      </trkpt>
      <trkpt lat="48.60569" lon="1.95228">
        <ele>111</ele>
        <time>2024-03-05T09:56:36Z</time>
      </trkpt>
      <trkpt lat="48.60573" lon="1.95216">
        <ele>111</ele>
        <time>2024-03-05T09:56:43Z</time>
      </trkpt>
      <trkpt lat="48.60571" lon="1.95202">
        <ele>111</ele>
        <time>2024-03-05T09:57:14Z</time>
      </trkpt>
      <trkpt lat="48.60573" lon="1.95188">
        <ele>111</ele>
        <time>2024-03-05T09:58:49Z</time>
      </trkpt>
      <trkpt lat="48.60577" lon="1.95175">
        <ele>111</ele>
        <time>2024-03-05T09:58:57Z</time>
      </trkpt>
      <trkpt lat="48.60569" lon="1.95166">
        <ele>111</ele>
        <time>2024-03-05T09:59:03Z</time>
      </trkpt>
      <trkpt lat="48.6056" lon="1.95158">
        <ele>111</ele>
        <time>2024-03-05T09:59:09Z</time>
      </trkpt>
      <trkpt lat="48.60552" lon="1.95149">
        <ele>111.1</ele>
        <time>2024-03-05T09:59:15Z</time>
      </trkpt>
      <trkpt lat="48.60543" lon="1.9514">
        <ele>111.4</ele>
        <time>2024-03-05T09:59:22Z</time>
      </trkpt>
      <trkpt lat="48.60535" lon="1.9513">
        <ele>111.7</ele>
        <time>2024-03-05T09:59:28Z</time>
      </trkpt>
      <trkpt lat="48.60531" lon="1.95116">
        <ele>111.9</ele>
        <time>2024-03-05T09:59:35Z</time>
      </trkpt>
      <trkpt lat="48.60525" lon="1.95103">
        <ele>112</ele>
        <time>2024-03-05T09:59:42Z</time>
      </trkpt>
      <trkpt lat="48.6052" lon="1.95089">
        <ele>112</ele>
        <time>2024-03-05T09:59:48Z</time>
      </trkpt>
      <trkpt lat="48.60516" lon="1.95075">
        <ele>112</ele>
        <time>2024-03-05T09:59:54Z</time>
      </trkpt>
      <trkpt lat="48.60508" lon="1.95067">
        <ele>112</ele>
        <time>2024-03-05T10:00:01Z</time>
      </trkpt>
      <trkpt lat="48.60499" lon="1.95061">
        <ele>112</ele>
        <time>2024-03-05T10:00:08Z</time>
      </trkpt>
      <trkpt lat="48.6049" lon="1.95056">
        <ele>112</ele>
        <time>2024-03-05T10:00:16Z</time>
      </trkpt>
      <trkpt lat="48.6048" lon="1.95058">
        <ele>112</ele>
        <time>2024-03-05T10:00:32Z</time>
      </trkpt>
      <trkpt lat="48.6047" lon="1.9506">
        <ele>112.1</ele>
        <time>2024-03-05T10:00:40Z</time>
      </trkpt>
      <trkpt lat="48.60461" lon="1.95065">
        <ele>112.3</ele>
        <time>2024-03-05T10:00:47Z</time>
      </trkpt>
      <trkpt lat="48.60451" lon="1.9507">
        <ele>112.4</ele>
        <time>2024-03-05T10:00:55Z</time>
      </trkpt>
      <trkpt lat="48.60443" lon="1.95074">
        <ele>112.4</ele>
        <time>2024-03-05T10:01:01Z</time>
      </trkpt>
      <trkpt lat="48.60433" lon="1.95078">
        <ele>112.5</ele>
        <time>2024-03-05T10:01:08Z</time>
      </trkpt>
      <trkpt lat="48.60425" lon="1.95083">
        <ele>112.7</ele>
        <time>2024-03-05T10:01:14Z</time>
      </trkpt>
      <trkpt lat="48.60417" lon="1.95089">
        <ele>113</ele>
        <time>2024-03-05T10:01:20Z</time>
      </trkpt>
      <trkpt lat="48.60408" lon="1.95096">
        <ele>113</ele>
        <time>2024-03-05T10:01:28Z</time>
      </trkpt>
      <trkpt lat="48.60398" lon="1.95097">
        <ele>113</ele>
        <time>2024-03-05T10:01:37Z</time>
      </trkpt>
      <trkpt lat="48.60388" lon="1.95096">
        <ele>113</ele>
        <time>2024-03-05T10:01:44Z</time>
      </trkpt>
      <trkpt lat="48.60379" lon="1.95099">
        <ele>113</ele>
        <time>2024-03-05T10:01:50Z</time>
      </trkpt>
      <trkpt lat="48.60369" lon="1.95102">
        <ele>113</ele>
        <time>2024-03-05T10:01:57Z</time>
      </trkpt>
      <trkpt lat="48.60363" lon="1.95112">
        <ele>113</ele>
        <time>2024-03-05T10:02:12Z</time>
      </trkpt>
      <trkpt lat="48.60355" lon="1.95115">
        <ele>113</ele>
        <time>2024-03-05T10:02:19Z</time>
      </trkpt>
      <trkpt lat="48.60346" lon="1.95121">
        <ele>113</ele>
        <time>2024-03-05T10:02:25Z</time>
      </trkpt>
      <trkpt lat="48.60337" lon="1.95128">
        <ele>113</ele>
        <time>2024-03-05T10:02:32Z</time>
      </trkpt>
      <trkpt lat="48.60329" lon="1.95133">
        <ele>113</ele>
        <time>2024-03-05T10:02:39Z</time>
      </trkpt>
      <trkpt lat="48.60319" lon="1.95135">
        <ele>113</ele>
        <time>2024-03-05T10:02:45Z</time>
      </trkpt>
      <trkpt lat="48.60309" lon="1.9514">
        <ele>113</ele>
        <time>2024-03-05T10:02:51Z</time>
      </trkpt>
      <trkpt lat="48.603" lon="1.95147">
        <ele>113</ele>
        <time>2024-03-05T10:02:57Z</time>
      </trkpt>
      <trkpt lat="48.60291" lon="1.95151">
        <ele>113</ele>
        <time>2024-03-05T10:03:03Z</time>
      </trkpt>
      <trkpt lat="48.60282" lon="1.95156">
        <ele>113</ele>
        <time>2024-03-05T10:03:10Z</time>
      </trkpt>
      <trkpt lat="48.60274" lon="1.95162">
        <ele>113</ele>
        <time>2024-03-05T10:03:16Z</time>
      </trkpt>
      <trkpt lat="48.60266" lon="1.95168">
        <ele>113</ele>
        <time>2024-03-05T10:03:22Z</time>
      </trkpt>
      <trkpt lat="48.60256" lon="1.95172">
        <ele>113</ele>
        <time>2024-03-05T10:03:29Z</time>
      </trkpt>
      <trkpt lat="48.60247" lon="1.95177">
        <ele>113</ele>
        <time>2024-03-05T10:03:36Z</time>
      </trkpt>
      <trkpt lat="48.60238" lon="1.95181">
        <ele>113</ele>
        <time>2024-03-05T10:03:42Z</time>
      </trkpt>
      <trkpt lat="48.60229" lon="1.95184">
        <ele>113</ele>
        <time>2024-03-05T10:03:50Z</time>
      </trkpt>
      <trkpt lat="48.60219" lon="1.95185">
        <ele>113</ele>
        <time>2024-03-05T10:03:57Z</time>
      </trkpt>
      <trkpt lat="48.60209" lon="1.95188">
        <ele>113.1</ele>
        <time>2024-03-05T10:04:03Z</time>
      </trkpt>
      <trkpt lat="48.602" lon="1.95192">
        <ele>113.1</ele>
        <time>2024-03-05T10:04:09Z</time>
      </trkpt>
      <trkpt lat="48.60191" lon="1.95197">
        <ele>113</ele>
        <time>2024-03-05T10:04:16Z</time>
      </trkpt>
      <trkpt lat="48.60182" lon="1.95202">
        <ele>113</ele>
        <time>2024-03-05T10:04:23Z</time>
      </trkpt>
      <trkpt lat="48.60172" lon="1.95208">
        <ele>113</ele>
        <time>2024-03-05T10:04:29Z</time>
      </trkpt>
      <trkpt lat="48.60164" lon="1.95215">
        <ele>113</ele>
        <time>2024-03-05T10:04:34Z</time>
      </trkpt>
      <trkpt lat="48.60154" lon="1.95219">
        <ele>113</ele>
        <time>2024-03-05T10:04:40Z</time>
      </trkpt>
      <trkpt lat="48.60144" lon="1.95223">
        <ele>113</ele>
        <time>2024-03-05T10:04:47Z</time>
      </trkpt>
      <trkpt lat="48.60134" lon="1.95227">
        <ele>113</ele>
        <time>2024-03-05T10:04:54Z</time>
      </trkpt>
      <trkpt lat="48.60125" lon="1.95232">
        <ele>113</ele>
        <time>2024-03-05T10:05:01Z</time>
      </trkpt>
      <trkpt lat="48.60116" lon="1.95238">
        <ele>113</ele>
        <time>2024-03-05T10:05:07Z</time>
      </trkpt>
      <trkpt lat="48.60108" lon="1.95242">
        <ele>113</ele>
        <time>2024-03-05T10:05:13Z</time>
      </trkpt>
      <trkpt lat="48.60098" lon="1.95247">
        <ele>113</ele>
        <time>2024-03-05T10:05:19Z</time>
      </trkpt>
      <trkpt lat="48.60089" lon="1.95253">
        <ele>113</ele>
        <time>2024-03-05T10:05:26Z</time>
      </trkpt>
      <trkpt lat="48.60082" lon="1.95263">
        <ele>113</ele>
        <time>2024-03-05T10:05:34Z</time>
      </trkpt>
      <trkpt lat="48.60078" lon="1.95275">
        <ele>113</ele>
        <time>2024-03-05T10:05:41Z</time>
      </trkpt>
      <trkpt lat="48.60069" lon="1.95279">
        <ele>113</ele>
        <time>2024-03-05T10:07:12Z</time>
      </trkpt>
      <trkpt lat="48.60059" lon="1.95281">
        <ele>113</ele>
        <time>2024-03-05T10:07:26Z</time>
      </trkpt>
      <trkpt lat="48.6005" lon="1.95287">
        <ele>113</ele>
        <time>2024-03-05T10:07:38Z</time>
      </trkpt>
      <trkpt lat="48.60042" lon="1.95295">
        <ele>113</ele>
        <time>2024-03-05T10:07:46Z</time>
      </trkpt>
      <trkpt lat="48.60046" lon="1.95308">
        <ele>113</ele>
        <time>2024-03-05T10:08:00Z</time>
      </trkpt>
      <trkpt lat="48.60042" lon="1.95322">
        <ele>113</ele>
        <time>2024-03-05T10:08:08Z</time>
      </trkpt>
      <trkpt lat="48.60035" lon="1.95332">
        <ele>113</ele>
        <time>2024-03-05T10:08:16Z</time>
      </trkpt>
      <trkpt lat="48.60029" lon="1.95344">
        <ele>113</ele>
        <time>2024-03-05T10:08:25Z</time>
      </trkpt>
      <trkpt lat="48.60022" lon="1.95354">
        <ele>113.2</ele>
        <time>2024-03-05T10:08:32Z</time>
      </trkpt>
      <trkpt lat="48.60016" lon="1.95365">
        <ele>113.5</ele>
        <time>2024-03-05T10:08:40Z</time>
      </trkpt>
      <trkpt lat="48.60012" lon="1.95377">
        <ele>113.8</ele>
        <time>2024-03-05T10:08:46Z</time>
      </trkpt>
      <trkpt lat="48.60007" lon="1.95389">
        <ele>114</ele>
        <time>2024-03-05T10:08:52Z</time>
      </trkpt>
      <trkpt lat="48.6" lon="1.954">
        <ele>114</ele>
        <time>2024-03-05T10:08:58Z</time>
      </trkpt>
      <trkpt lat="48.59996" lon="1.95414">
        <ele>114.2</ele>
        <time>2024-03-05T10:09:04Z</time>
      </trkpt>
      <trkpt lat="48.5999" lon="1.95427">
        <ele>114.3</ele>
        <time>2024-03-05T10:09:12Z</time>
      </trkpt>
      <trkpt lat="48.59984" lon="1.95439">
        <ele>114.6</ele>
        <time>2024-03-05T10:09:20Z</time>
      </trkpt>
      <trkpt lat="48.59978" lon="1.9545">
        <ele>115</ele>
        <time>2024-03-05T10:09:27Z</time>
      </trkpt>
      <trkpt lat="48.59973" lon="1.95462">
        <ele>115.6</ele>
        <time>2024-03-05T10:09:34Z</time>
      </trkpt>
      <trkpt lat="48.59966" lon="1.95473">
        <ele>116.5</ele>
        <time>2024-03-05T10:09:42Z</time>
      </trkpt>
      <trkpt lat="48.59962" lon="1.95486">
        <ele>117.2</ele>
        <time>2024-03-05T10:09:48Z</time>
      </trkpt>
      <trkpt lat="48.59956" lon="1.95498">
        <ele>118.1</ele>
        <time>2024-03-05T10:09:54Z</time>
      </trkpt>
      <trkpt lat="48.59953" lon="1.95512">
        <ele>118.8</ele>
        <time>2024-03-05T10:10:00Z</time>
      </trkpt>
      <trkpt lat="48.59948" lon="1.95524">
        <ele>119.6</ele>
        <time>2024-03-05T10:10:07Z</time>
      </trkpt>
      <trkpt lat="48.59942" lon="1.95534">
        <ele>120.2</ele>
        <time>2024-03-05T10:10:16Z</time>
      </trkpt>
      <trkpt lat="48.59935" lon="1.95544">
        <ele>120.4</ele>
        <time>2024-03-05T10:10:24Z</time>
      </trkpt>
      <trkpt lat="48.5993" lon="1.95557">
        <ele>120.5</ele>
        <time>2024-03-05T10:10:31Z</time>
      </trkpt>
      <trkpt lat="48.59925" lon="1.9557">
        <ele>120.7</ele>
        <time>2024-03-05T10:10:37Z</time>
      </trkpt>
      <trkpt lat="48.5992" lon="1.95583">
        <ele>121</ele>
        <time>2024-03-05T10:10:44Z</time>
      </trkpt>
      <trkpt lat="48.59914" lon="1.95595">
        <ele>121.3</ele>
        <time>2024-03-05T10:10:52Z</time>
      </trkpt>
      <trkpt lat="48.59909" lon="1.95608">
        <ele>121.6</ele>
        <time>2024-03-05T10:10:59Z</time>
      </trkpt>
      <trkpt lat="48.59903" lon="1.9562">
        <ele>121.8</ele>
        <time>2024-03-05T10:11:05Z</time>
      </trkpt>
      <trkpt lat="48.59898" lon="1.95632">
        <ele>122.1</ele>
        <time>2024-03-05T10:11:11Z</time>
      </trkpt>
      <trkpt lat="48.59892" lon="1.95644">
        <ele>122.3</ele>
        <time>2024-03-05T10:11:17Z</time>
      </trkpt>
      <trkpt lat="48.59885" lon="1.95654">
        <ele>122.4</ele>
        <time>2024-03-05T10:11:24Z</time>
      </trkpt>
      <trkpt lat="48.59879" lon="1.95665">
        <ele>122.2</ele>
        <time>2024-03-05T10:11:31Z</time>
      </trkpt>
      <trkpt lat="48.59872" lon="1.95675">
        <ele>122</ele>
        <time>2024-03-05T10:11:38Z</time>
      </trkpt>
      <trkpt lat="48.59867" lon="1.95688">
        <ele>122</ele>
        <time>2024-03-05T10:11:45Z</time>
      </trkpt>
      <trkpt lat="48.59863" lon="1.95701">
        <ele>122.3</ele>
        <time>2024-03-05T10:11:51Z</time>
      </trkpt>
      <trkpt lat="48.59857" lon="1.95712">
        <ele>122.5</ele>
        <time>2024-03-05T10:11:57Z</time>
      </trkpt>
      <trkpt lat="48.59851" lon="1.95725">
        <ele>122.7</ele>
        <time>2024-03-05T10:12:03Z</time>
      </trkpt>
      <trkpt lat="48.59845" lon="1.95735">
        <ele>122.7</ele>
        <time>2024-03-05T10:12:09Z</time>
      </trkpt>
      <trkpt lat="48.59838" lon="1.95744">
        <ele>122.8</ele>
        <time>2024-03-05T10:12:19Z</time>
      </trkpt>
      <trkpt lat="48.59832" lon="1.95756">
        <ele>123</ele>
        <time>2024-03-05T10:12:27Z</time>
      </trkpt>
      <trkpt lat="48.59826" lon="1.95767">
        <ele>122.9</ele>
        <time>2024-03-05T10:12:35Z</time>
      </trkpt>
      <trkpt lat="48.59821" lon="1.95779">
        <ele>123</ele>
        <time>2024-03-05T10:12:42Z</time>
      </trkpt>
      <trkpt lat="48.59816" lon="1.95792">
        <ele>123.2</ele>
        <time>2024-03-05T10:12:49Z</time>
      </trkpt>
      <trkpt lat="48.59811" lon="1.95804">
        <ele>123.2</ele>
        <time>2024-03-05T10:12:57Z</time>
      </trkpt>
      <trkpt lat="48.59806" lon="1.95815">
        <ele>123.4</ele>
        <time>2024-03-05T10:13:04Z</time>
      </trkpt>
      <trkpt lat="48.59798" lon="1.95825">
        <ele>123.7</ele>
        <time>2024-03-05T10:13:11Z</time>
      </trkpt>
      <trkpt lat="48.59793" lon="1.95837">
        <ele>124.1</ele>
        <time>2024-03-05T10:13:19Z</time>
      </trkpt>
      <trkpt lat="48.59787" lon="1.95848">
        <ele>124.5</ele>
        <time>2024-03-05T10:13:25Z</time>
      </trkpt>
      <trkpt lat="48.5978" lon="1.9586">
        <ele>125</ele>
        <time>2024-03-05T10:13:33Z</time>
      </trkpt>
      <trkpt lat="48.59774" lon="1.95872">
        <ele>125.3</ele>
        <time>2024-03-05T10:13:40Z</time>
      </trkpt>
      <trkpt lat="48.59767" lon="1.95883">
        <ele>125.4</ele>
        <time>2024-03-05T10:13:48Z</time>
      </trkpt>
      <trkpt lat="48.59762" lon="1.95896">
        <ele>125.7</ele>
        <time>2024-03-05T10:13:55Z</time>
      </trkpt>
      <trkpt lat="48.5976" lon="1.95909">
        <ele>126.1</ele>
        <time>2024-03-05T10:14:00Z</time>
      </trkpt>
      <trkpt lat="48.59758" lon="1.95923">
        <ele>126.7</ele>
        <time>2024-03-05T10:14:05Z</time>
      </trkpt>
      <trkpt lat="48.59753" lon="1.95935">
        <ele>127.4</ele>
        <time>2024-03-05T10:14:12Z</time>
      </trkpt>
      <trkpt lat="48.59747" lon="1.95948">
        <ele>128</ele>
        <time>2024-03-05T10:14:19Z</time>
      </trkpt>
      <trkpt lat="48.59742" lon="1.95963">
        <ele>128.4</ele>
        <time>2024-03-05T10:14:24Z</time>
      </trkpt>
      <trkpt lat="48.59735" lon="1.95974">
        <ele>128.5</ele>
        <time>2024-03-05T10:14:30Z</time>
      </trkpt>
      <trkpt lat="48.59729" lon="1.95986">
        <ele>128.8</ele>
        <time>2024-03-05T10:14:36Z</time>
      </trkpt>
      <trkpt lat="48.59724" lon="1.95999">
        <ele>129</ele>
        <time>2024-03-05T10:14:42Z</time>
      </trkpt>
      <trkpt lat="48.5972" lon="1.96013">
        <ele>129.4</ele>
        <time>2024-03-05T10:14:48Z</time>
      </trkpt>
      <trkpt lat="48.59715" lon="1.96024">
        <ele>129.6</ele>
        <time>2024-03-05T10:14:54Z</time>
      </trkpt>
      <trkpt lat="48.59709" lon="1.96037">
        <ele>130</ele>
        <time>2024-03-05T10:15:01Z</time>
      </trkpt>
      <trkpt lat="48.59705" lon="1.96051">
        <ele>130.8</ele>
        <time>2024-03-05T10:15:09Z</time>
      </trkpt>
      <trkpt lat="48.59701" lon="1.96064">
        <ele>131.9</ele>
        <time>2024-03-05T10:15:17Z</time>
      </trkpt>
      <trkpt lat="48.59695" lon="1.96077">
        <ele>133.2</ele>
        <time>2024-03-05T10:15:24Z</time>
      </trkpt>
      <trkpt lat="48.59689" lon="1.96089">
        <ele>134.4</ele>
        <time>2024-03-05T10:15:31Z</time>
      </trkpt>
      <trkpt lat="48.59682" lon="1.961">
        <ele>135.2</ele>
        <time>2024-03-05T10:15:39Z</time>
      </trkpt>
      <trkpt lat="48.59675" lon="1.96111">
        <ele>136</ele>
        <time>2024-03-05T10:15:47Z</time>
      </trkpt>
      <trkpt lat="48.59669" lon="1.96122">
        <ele>136.8</ele>
        <time>2024-03-05T10:15:56Z</time>
      </trkpt>
      <trkpt lat="48.59664" lon="1.96134">
        <ele>137.5</ele>
        <time>2024-03-05T10:16:04Z</time>
      </trkpt>
      <trkpt lat="48.59658" lon="1.96146">
        <ele>138.4</ele>
        <time>2024-03-05T10:16:11Z</time>
      </trkpt>
      <trkpt lat="48.59651" lon="1.96156">
        <ele>139.3</ele>
        <time>2024-03-05T10:16:20Z</time>
      </trkpt>
      <trkpt lat="48.59646" lon="1.96168">
        <ele>140.4</ele>
        <time>2024-03-05T10:16:28Z</time>
      </trkpt>
      <trkpt lat="48.59641" lon="1.96179">
        <ele>141.9</ele>
        <time>2024-03-05T10:16:36Z</time>
      </trkpt>
      <trkpt lat="48.59635" lon="1.96191">
        <ele>143.4</ele>
        <time>2024-03-05T10:16:44Z</time>
      </trkpt>
      <trkpt lat="48.5963" lon="1.96204">
        <ele>145</ele>
        <time>2024-03-05T10:16:52Z</time>
      </trkpt>
      <trkpt lat="48.59625" lon="1.96216">
        <ele>146.6</ele>
        <time>2024-03-05T10:17:01Z</time>
      </trkpt>
      <trkpt lat="48.5962" lon="1.96228">
        <ele>148.1</ele>
        <time>2024-03-05T10:17:09Z</time>
      </trkpt>
      <trkpt lat="48.59616" lon="1.9624">
        <ele>149.8</ele>
        <time>2024-03-05T10:17:17Z</time>
      </trkpt>
      <trkpt lat="48.5961" lon="1.96252">
        <ele>151.2</ele>
        <time>2024-03-05T10:17:25Z</time>
      </trkpt>
      <trkpt lat="48.59605" lon="1.96263">
        <ele>152.2</ele>
        <time>2024-03-05T10:17:33Z</time>
      </trkpt>
      <trkpt lat="48.59599" lon="1.96275">
        <ele>153.2</ele>
        <time>2024-03-05T10:17:42Z</time>
      </trkpt>
      <trkpt lat="48.59593" lon="1.96286">
        <ele>154</ele>
        <time>2024-03-05T10:17:49Z</time>
      </trkpt>
      <trkpt lat="48.59587" lon="1.96297">
        <ele>154.5</ele>
        <time>2024-03-05T10:17:55Z</time>
      </trkpt>
      <trkpt lat="48.59582" lon="1.96309">
        <ele>155.1</ele>
        <time>2024-03-05T10:18:02Z</time>
      </trkpt>
      <trkpt lat="48.59577" lon="1.96321">
        <ele>155.1</ele>
        <time>2024-03-05T10:18:18Z</time>
      </trkpt>
      <trkpt lat="48.59571" lon="1.96331">
        <ele>155.1</ele>
        <time>2024-03-05T10:21:51Z</time>
      </trkpt>
      <trkpt lat="48.59566" lon="1.96344">
        <ele>155.1</ele>
        <time>2024-03-05T10:21:59Z</time>
      </trkpt>
      <trkpt lat="48.59558" lon="1.96355">
        <ele>154.9</ele>
        <time>2024-03-05T10:22:07Z</time>
      </trkpt>
      <trkpt lat="48.59554" lon="1.96367">
        <ele>154.7</ele>
        <time>2024-03-05T10:22:13Z</time>
      </trkpt>
      <trkpt lat="48.59548" lon="1.9638">
        <ele>153.8</ele>
        <time>2024-03-05T10:22:20Z</time>
      </trkpt>
      <trkpt lat="48.59542" lon="1.96392">
        <ele>153.1</ele>
        <time>2024-03-05T10:22:27Z</time>
      </trkpt>
      <trkpt lat="48.59537" lon="1.96404">
        <ele>152.3</ele>
        <time>2024-03-05T10:22:34Z</time>
      </trkpt>
      <trkpt lat="48.5953" lon="1.96415">
        <ele>151.4</ele>
        <time>2024-03-05T10:22:41Z</time>
      </trkpt>
      <trkpt lat="48.59524" lon="1.96427">
        <ele>150.7</ele>
        <time>2024-03-05T10:22:48Z</time>
      </trkpt>
      <trkpt lat="48.59519" lon="1.96441">
        <ele>150.3</ele>
        <time>2024-03-05T10:22:55Z</time>
      </trkpt>
      <trkpt lat="48.59515" lon="1.96454">
        <ele>149.8</ele>
        <time>2024-03-05T10:23:02Z</time>
      </trkpt>
      <trkpt lat="48.5951" lon="1.96468">
        <ele>149.4</ele>
        <time>2024-03-05T10:23:09Z</time>
      </trkpt>
      <trkpt lat="48.59505" lon="1.9648">
        <ele>148.7</ele>
        <time>2024-03-05T10:23:16Z</time>
      </trkpt>
      <trkpt lat="48.59499" lon="1.96492">
        <ele>147.8</ele>
        <time>2024-03-05T10:23:23Z</time>
      </trkpt>
      <trkpt lat="48.59492" lon="1.96501">
        <ele>146.5</ele>
        <time>2024-03-05T10:23:30Z</time>
      </trkpt>
      <trkpt lat="48.59487" lon="1.96514">
        <ele>145.3</ele>
        <time>2024-03-05T10:23:37Z</time>
      </trkpt>
      <trkpt lat="48.59481" lon="1.96526">
        <ele>144.3</ele>
        <time>2024-03-05T10:23:44Z</time>
      </trkpt>
      <trkpt lat="48.59476" lon="1.96538">
        <ele>143.5</ele>
        <time>2024-03-05T10:23:51Z</time>
      </trkpt>
      <trkpt lat="48.5947" lon="1.96549">
        <ele>142.8</ele>
        <time>2024-03-05T10:23:58Z</time>
      </trkpt>
      <trkpt lat="48.59465" lon="1.96561">
        <ele>142.6</ele>
        <time>2024-03-05T10:24:05Z</time>
      </trkpt>
      <trkpt lat="48.59459" lon="1.96573">
        <ele>142.7</ele>
        <time>2024-03-05T10:24:12Z</time>
      </trkpt>
      <trkpt lat="48.59453" lon="1.96585">
        <ele>142.7</ele>
        <time>2024-03-05T10:24:20Z</time>
      </trkpt>
      <trkpt lat="48.59447" lon="1.96596">
        <ele>142.7</ele>
        <time>2024-03-05T10:24:27Z</time>
      </trkpt>
      <trkpt lat="48.59443" lon="1.96608">
        <ele>142.8</ele>
        <time>2024-03-05T10:24:34Z</time>
      </trkpt>
      <trkpt lat="48.59439" lon="1.9662">
        <ele>142.7</ele>
        <time>2024-03-05T10:24:41Z</time>
      </trkpt>
      <trkpt lat="48.59433" lon="1.96633">
        <ele>142.5</ele>
        <time>2024-03-05T10:24:48Z</time>
      </trkpt>
      <trkpt lat="48.59428" lon="1.96645">
        <ele>142.6</ele>
        <time>2024-03-05T10:24:55Z</time>
      </trkpt>
      <trkpt lat="48.59421" lon="1.96656">
        <ele>142.8</ele>
        <time>2024-03-05T10:25:02Z</time>
      </trkpt>
      <trkpt lat="48.59415" lon="1.96668">
        <ele>142.9</ele>
        <time>2024-03-05T10:25:12Z</time>
      </trkpt>
      <trkpt lat="48.5941" lon="1.96679">
        <ele>143</ele>
        <time>2024-03-05T10:25:19Z</time>
      </trkpt>
      <trkpt lat="48.59406" lon="1.96692">
        <ele>143.1</ele>
        <time>2024-03-05T10:25:26Z</time>
      </trkpt>
      <trkpt lat="48.594" lon="1.96703">
        <ele>143.3</ele>
        <time>2024-03-05T10:25:33Z</time>
      </trkpt>
      <trkpt lat="48.59395" lon="1.96716">
        <ele>143.8</ele>
        <time>2024-03-05T10:25:41Z</time>
      </trkpt>
      <trkpt lat="48.59388" lon="1.96727">
        <ele>144.2</ele>
        <time>2024-03-05T10:25:49Z</time>
      </trkpt>
      <trkpt lat="48.59383" lon="1.96738">
        <ele>144</ele>
        <time>2024-03-05T10:25:56Z</time>
      </trkpt>
      <trkpt lat="48.59377" lon="1.9675">
        <ele>143.9</ele>
        <time>2024-03-05T10:26:04Z</time>
      </trkpt>
      <trkpt lat="48.59372" lon="1.96761">
        <ele>143.7</ele>
        <time>2024-03-05T10:26:11Z</time>
      </trkpt>
      <trkpt lat="48.59366" lon="1.96773">
        <ele>143.5</ele>
        <time>2024-03-05T10:26:18Z</time>
      </trkpt>
      <trkpt lat="48.59361" lon="1.96785">
        <ele>143.7</ele>
        <time>2024-03-05T10:26:25Z</time>
      </trkpt>
      <trkpt lat="48.59355" lon="1.96796">
        <ele>143.3</ele>
        <time>2024-03-05T10:26:32Z</time>
      </trkpt>
      <trkpt lat="48.59348" lon="1.96807">
        <ele>142.2</ele>
        <time>2024-03-05T10:26:40Z</time>
      </trkpt>
      <trkpt lat="48.59341" lon="1.96819">
        <ele>140.8</ele>
        <time>2024-03-05T10:26:48Z</time>
      </trkpt>
      <trkpt lat="48.59334" lon="1.96831">
        <ele>139.2</ele>
        <time>2024-03-05T10:26:56Z</time>
      </trkpt>
      <trkpt lat="48.59329" lon="1.96842">
        <ele>138.4</ele>
        <time>2024-03-05T10:27:03Z</time>
      </trkpt>
      <trkpt lat="48.59326" lon="1.96856">
        <ele>138</ele>
        <time>2024-03-05T10:27:11Z</time>
      </trkpt>
      <trkpt lat="48.5932" lon="1.96868">
        <ele>136.6</ele>
        <time>2024-03-05T10:27:19Z</time>
      </trkpt>
      <trkpt lat="48.59313" lon="1.96878">
        <ele>134.8</ele>
        <time>2024-03-05T10:27:26Z</time>
      </trkpt>
      <trkpt lat="48.59309" lon="1.96892">
        <ele>133.9</ele>
        <time>2024-03-05T10:27:32Z</time>
      </trkpt>
      <trkpt lat="48.59305" lon="1.96904">
        <ele>132.9</ele>
        <time>2024-03-05T10:27:38Z</time>
      </trkpt>
      <trkpt lat="48.59299" lon="1.96916">
        <ele>131.9</ele>
        <time>2024-03-05T10:27:46Z</time>
      </trkpt>
      <trkpt lat="48.59293" lon="1.96927">
        <ele>130.3</ele>
        <time>2024-03-05T10:27:53Z</time>
      </trkpt>
      <trkpt lat="48.59288" lon="1.96939">
        <ele>129</ele>
        <time>2024-03-05T10:28:00Z</time>
      </trkpt>
      <trkpt lat="48.59283" lon="1.96952">
        <ele>127.7</ele>
        <time>2024-03-05T10:28:08Z</time>
      </trkpt>
      <trkpt lat="48.59278" lon="1.96964">
        <ele>126.3</ele>
        <time>2024-03-05T10:28:15Z</time>
      </trkpt>
      <trkpt lat="48.59271" lon="1.96976">
        <ele>125.2</ele>
        <time>2024-03-05T10:28:23Z</time>
      </trkpt>
      <trkpt lat="48.59265" lon="1.96987">
        <ele>124.4</ele>
        <time>2024-03-05T10:28:30Z</time>
      </trkpt>
      <trkpt lat="48.59259" lon="1.97">
        <ele>123.6</ele>
        <time>2024-03-05T10:28:37Z</time>
      </trkpt>
      <trkpt lat="48.59253" lon="1.97013">
        <ele>122.9</ele>
        <time>2024-03-05T10:28:43Z</time>
      </trkpt>
      <trkpt lat="48.59248" lon="1.97025">
        <ele>122.6</ele>
        <time>2024-03-05T10:28:50Z</time>
      </trkpt>
      <trkpt lat="48.59241" lon="1.97036">
        <ele>122.3</ele>
        <time>2024-03-05T10:28:58Z</time>
      </trkpt>
      <trkpt lat="48.59237" lon="1.97048">
        <ele>122.3</ele>
        <time>2024-03-05T10:29:05Z</time>
      </trkpt>
      <trkpt lat="48.59231" lon="1.97061">
        <ele>122</ele>
        <time>2024-03-05T10:29:12Z</time>
      </trkpt>
      <trkpt lat="48.59227" lon="1.97075">
        <ele>121.5</ele>
        <time>2024-03-05T10:29:19Z</time>
      </trkpt>
      <trkpt lat="48.59221" lon="1.97087">
        <ele>120.9</ele>
        <time>2024-03-05T10:29:26Z</time>
      </trkpt>
      <trkpt lat="48.59215" lon="1.97099">
        <ele>120.5</ele>
        <time>2024-03-05T10:29:32Z</time>
      </trkpt>
      <trkpt lat="48.59209" lon="1.9711">
        <ele>120.1</ele>
        <time>2024-03-05T10:29:38Z</time>
      </trkpt>
      <trkpt lat="48.59203" lon="1.97122">
        <ele>119.6</ele>
        <time>2024-03-05T10:29:45Z</time>
      </trkpt>
      <trkpt lat="48.59198" lon="1.97135">
        <ele>119.2</ele>
        <time>2024-03-05T10:29:52Z</time>
      </trkpt>
      <trkpt lat="48.59191" lon="1.97147">
        <ele>118.8</ele>
        <time>2024-03-05T10:29:59Z</time>
      </trkpt>
      <trkpt lat="48.59186" lon="1.9716">
        <ele>118.4</ele>
        <time>2024-03-05T10:30:07Z</time>
      </trkpt>
      <trkpt lat="48.59179" lon="1.97171">
        <ele>117.9</ele>
        <time>2024-03-05T10:30:15Z</time>
      </trkpt>
      <trkpt lat="48.59174" lon="1.97183">
        <ele>117.5</ele>
        <time>2024-03-05T10:30:21Z</time>
      </trkpt>
      <trkpt lat="48.59169" lon="1.97196">
        <ele>117.2</ele>
        <time>2024-03-05T10:30:28Z</time>
      </trkpt>
      <trkpt lat="48.59163" lon="1.97206">
        <ele>116.7</ele>
        <time>2024-03-05T10:30:34Z</time>
      </trkpt>
      <trkpt lat="48.59157" lon="1.97217">
        <ele>116.3</ele>
        <time>2024-03-05T10:30:41Z</time>
      </trkpt>
      <trkpt lat="48.59151" lon="1.97229">
        <ele>115.8</ele>
        <time>2024-03-05T10:30:47Z</time>
      </trkpt>
      <trkpt lat="48.59144" lon="1.97239">
        <ele>115.4</ele>
        <time>2024-03-05T10:30:53Z</time>
      </trkpt>
      <trkpt lat="48.59139" lon="1.97251">
        <ele>115</ele>
        <time>2024-03-05T10:30:59Z</time>
      </trkpt>
      <trkpt lat="48.59134" lon="1.97265">
        <ele>114.8</ele>
        <time>2024-03-05T10:31:06Z</time>
      </trkpt>
      <trkpt lat="48.59129" lon="1.97277">
        <ele>114.6</ele>
        <time>2024-03-05T10:31:14Z</time>
      </trkpt>
      <trkpt lat="48.59122" lon="1.97288">
        <ele>114.4</ele>
        <time>2024-03-05T10:31:21Z</time>
      </trkpt>
      <trkpt lat="48.59116" lon="1.97299">
        <ele>114.2</ele>
        <time>2024-03-05T10:31:28Z</time>
      </trkpt>
      <trkpt lat="48.5911" lon="1.97311">
        <ele>114</ele>
        <time>2024-03-05T10:31:36Z</time>
      </trkpt>
      <trkpt lat="48.591" lon="1.97312">
        <ele>114</ele>
        <time>2024-03-05T10:31:43Z</time>
      </trkpt>
      <trkpt lat="48.59091" lon="1.97309">
        <ele>114</ele>
        <time>2024-03-05T10:31:50Z</time>
      </trkpt>
      <trkpt lat="48.59082" lon="1.97305">
        <ele>113.9</ele>
        <time>2024-03-05T10:31:57Z</time>
      </trkpt>
      <trkpt lat="48.59073" lon="1.97298">
        <ele>113.5</ele>
        <time>2024-03-05T10:32:04Z</time>
      </trkpt>
      <trkpt lat="48.59065" lon="1.9729">
        <ele>113.1</ele>
        <time>2024-03-05T10:32:11Z</time>
      </trkpt>
      <trkpt lat="48.59057" lon="1.97284">
        <ele>113</ele>
        <time>2024-03-05T10:32:18Z</time>
      </trkpt>
      <trkpt lat="48.59048" lon="1.97278">
        <ele>112.7</ele>
        <time>2024-03-05T10:32:24Z</time>
      </trkpt>
      <trkpt lat="48.5904" lon="1.97273">
        <ele>112.4</ele>
        <time>2024-03-05T10:32:30Z</time>
      </trkpt>
      <trkpt lat="48.59033" lon="1.97264">
        <ele>112.2</ele>
        <time>2024-03-05T10:32:36Z</time>
      </trkpt>
      <trkpt lat="48.59025" lon="1.97256">
        <ele>112</ele>
        <time>2024-03-05T10:32:43Z</time>
      </trkpt>
      <trkpt lat="48.59029" lon="1.97244">
        <ele>112</ele>
        <time>2024-03-05T10:32:50Z</time>
      </trkpt>
      <trkpt lat="48.59032" lon="1.97231">
        <ele>112.2</ele>
        <time>2024-03-05T10:32:58Z</time>
      </trkpt>
      <trkpt lat="48.59036" lon="1.97216">
        <ele>112.4</ele>
        <time>2024-03-05T10:33:06Z</time>
      </trkpt>
      <trkpt lat="48.59038" lon="1.97202">
        <ele>112.8</ele>
        <time>2024-03-05T10:33:13Z</time>
      </trkpt>
      <trkpt lat="48.59038" lon="1.97187">
        <ele>113</ele>
        <time>2024-03-05T10:33:20Z</time>
      </trkpt>
      <trkpt lat="48.59039" lon="1.97172">
        <ele>113</ele>
        <time>2024-03-05T10:33:27Z</time>
      </trkpt>
      <trkpt lat="48.59041" lon="1.97158">
        <ele>113</ele>
        <time>2024-03-05T10:33:35Z</time>
      </trkpt>
      <trkpt lat="48.59042" lon="1.97143">
        <ele>113</ele>
        <time>2024-03-05T10:33:43Z</time>
      </trkpt>
      <trkpt lat="48.59044" lon="1.97129">
        <ele>113</ele>
        <time>2024-03-05T10:33:50Z</time>
      </trkpt>
      <trkpt lat="48.59046" lon="1.97114">
        <ele>113</ele>
        <time>2024-03-05T10:33:56Z</time>
      </trkpt>
      <trkpt lat="48.59049" lon="1.97099">
        <ele>113</ele>
        <time>2024-03-05T10:34:03Z</time>
      </trkpt>
      <trkpt lat="48.59052" lon="1.97085">
        <ele>113</ele>
        <time>2024-03-05T10:34:11Z</time>
      </trkpt>
      <trkpt lat="48.59053" lon="1.9707">
        <ele>113</ele>
        <time>2024-03-05T10:34:18Z</time>
      </trkpt>
      <trkpt lat="48.59055" lon="1.97056">
        <ele>113</ele>
        <time>2024-03-05T10:34:24Z</time>
      </trkpt>
      <trkpt lat="48.59058" lon="1.97043">
        <ele>113.1</ele>
        <time>2024-03-05T10:34:31Z</time>
      </trkpt>
      <trkpt lat="48.59062" lon="1.9703">
        <ele>113.2</ele>
        <time>2024-03-05T10:34:37Z</time>
      </trkpt>
      <trkpt lat="48.59066" lon="1.97016">
        <ele>113.2</ele>
        <time>2024-03-05T10:34:45Z</time>
      </trkpt>
      <trkpt lat="48.59069" lon="1.97002">
        <ele>113</ele>
        <time>2024-03-05T10:34:52Z</time>
      </trkpt>
      <trkpt lat="48.59073" lon="1.96988">
        <ele>113</ele>
        <time>2024-03-05T10:35:00Z</time>
      </trkpt>
      <trkpt lat="48.59077" lon="1.96975">
        <ele>113</ele>
        <time>2024-03-05T10:35:08Z</time>
      </trkpt>
      <trkpt lat="48.59084" lon="1.96964">
        <ele>113</ele>
        <time>2024-03-05T10:35:16Z</time>
      </trkpt>
      <trkpt lat="48.5909" lon="1.96953">
        <ele>113.2</ele>
        <time>2024-03-05T10:35:23Z</time>
      </trkpt>
      <trkpt lat="48.59093" lon="1.96939">
        <ele>113.3</ele>
        <time>2024-03-05T10:35:28Z</time>
      </trkpt>
      <trkpt lat="48.59093" lon="1.96924">
        <ele>113.3</ele>
        <time>2024-03-05T10:35:34Z</time>
      </trkpt>
      <trkpt lat="48.59097" lon="1.9691">
        <ele>113.4</ele>
        <time>2024-03-05T10:35:42Z</time>
      </trkpt>
      <trkpt lat="48.591" lon="1.96898">
        <ele>113.2</ele>
        <time>2024-03-05T10:35:49Z</time>
      </trkpt>
      <trkpt lat="48.59104" lon="1.96884">
        <ele>113</ele>
        <time>2024-03-05T10:35:57Z</time>
      </trkpt>
      <trkpt lat="48.59107" lon="1.9687">
        <ele>113</ele>
        <time>2024-03-05T10:36:03Z</time>
      </trkpt>
      <trkpt lat="48.59111" lon="1.96855">
        <ele>113</ele>
        <time>2024-03-05T10:36:10Z</time>
      </trkpt>
      <trkpt lat="48.59113" lon="1.96841">
        <ele>113.2</ele>
        <time>2024-03-05T10:36:18Z</time>
      </trkpt>
      <trkpt lat="48.59118" lon="1.96829">
        <ele>113.5</ele>
        <time>2024-03-05T10:36:26Z</time>
      </trkpt>
      <trkpt lat="48.59122" lon="1.96816">
        <ele>113.8</ele>
        <time>2024-03-05T10:36:33Z</time>
      </trkpt>
      <trkpt lat="48.59126" lon="1.96803">
        <ele>114</ele>
        <time>2024-03-05T10:36:39Z</time>
      </trkpt>
      <trkpt lat="48.5913" lon="1.9679">
        <ele>114.3</ele>
        <time>2024-03-05T10:36:46Z</time>
      </trkpt>
      <trkpt lat="48.59134" lon="1.96777">
        <ele>114.6</ele>
        <time>2024-03-05T10:36:54Z</time>
      </trkpt>
      <trkpt lat="48.59138" lon="1.96765">
        <ele>114.5</ele>
        <time>2024-03-05T10:37:01Z</time>
      </trkpt>
      <trkpt lat="48.5914" lon="1.96751">
        <ele>114.2</ele>
        <time>2024-03-05T10:37:07Z</time>
      </trkpt>
      <trkpt lat="48.59145" lon="1.96737">
        <ele>114.5</ele>
        <time>2024-03-05T10:37:15Z</time>
      </trkpt>
      <trkpt lat="48.59149" lon="1.96724">
        <ele>114.7</ele>
        <time>2024-03-05T10:37:24Z</time>
      </trkpt>
      <trkpt lat="48.59153" lon="1.9671">
        <ele>115</ele>
        <time>2024-03-05T10:37:31Z</time>
      </trkpt>
      <trkpt lat="48.59155" lon="1.96696">
        <ele>115.2</ele>
        <time>2024-03-05T10:37:38Z</time>
      </trkpt>
      <trkpt lat="48.59153" lon="1.96681">
        <ele>115</ele>
        <time>2024-03-05T10:37:45Z</time>
      </trkpt>
      <trkpt lat="48.5915" lon="1.96666">
        <ele>114.8</ele>
        <time>2024-03-05T10:37:53Z</time>
      </trkpt>
      <trkpt lat="48.59152" lon="1.96652">
        <ele>114.9</ele>
        <time>2024-03-05T10:38:01Z</time>
      </trkpt>
      <trkpt lat="48.59152" lon="1.96638">
        <ele>115</ele>
        <time>2024-03-05T10:38:09Z</time>
      </trkpt>
      <trkpt lat="48.59155" lon="1.96624">
        <ele>115.4</ele>
        <time>2024-03-05T10:38:17Z</time>
      </trkpt>
      <trkpt lat="48.59164" lon="1.96619">
        <ele>115.9</ele>
        <time>2024-03-05T10:38:24Z</time>
      </trkpt>
      <trkpt lat="48.59175" lon="1.96617">
        <ele>116.3</ele>
        <time>2024-03-05T10:38:32Z</time>
      </trkpt>
      <trkpt lat="48.59183" lon="1.9661">
        <ele>116.6</ele>
        <time>2024-03-05T10:38:44Z</time>
      </trkpt>
      <trkpt lat="48.59188" lon="1.96597">
        <ele>116.8</ele>
        <time>2024-03-05T10:38:52Z</time>
      </trkpt>
    </trkseg>
  </trk>
</gpx>